<?xml version='1.0' encoding='UTF-8'?>
<gpx version="1.1" creator="https://www.komoot.de" xmlns="http://www.topografix.com/GPX/1/1" xmlns:xsi="http://www.w3.org/2001/XMLSchema-instance" xsi:schemaLocation="http://www.topografix.com/GPX/1/1 http://www.topografix.com/GPX/1/1/gpx.xsd">
  <metadata>
    <name>Gipfelsturm CLASSIC gesamt</name>
    <author>
      <link href="https://www.komoot.de">
        <text>komoot</text>
        <type>text/html</type>
      </link>
    </author>
  </metadata>
  <trk>
    <name>Gipfelsturm CLASSIC gesamt</name>
    <trkseg>
      <trkpt lat="47.138120" lon="15.419546">
        <ele>419.148082</ele>
        <time>2024-07-02T13:22:30.761Z</time>
      </trkpt>
      <trkpt lat="47.138561" lon="15.419318">
        <ele>419.148082</ele>
        <time>2024-07-02T13:22:40.320Z</time>
      </trkpt>
      <trkpt lat="47.138584" lon="15.419308">
        <ele>419.148082</ele>
        <time>2024-07-02T13:22:40.877Z</time>
      </trkpt>
      <trkpt lat="47.139240" lon="15.418985">
        <ele>419.362788</ele>
        <time>2024-07-02T13:22:55.236Z</time>
      </trkpt>
      <trkpt lat="47.139284" lon="15.418961">
        <ele>419.398274</ele>
        <time>2024-07-02T13:22:56.287Z</time>
      </trkpt>
      <trkpt lat="47.139368" lon="15.418917">
        <ele>419.465700</ele>
        <time>2024-07-02T13:22:58.083Z</time>
      </trkpt>
      <trkpt lat="47.139508" lon="15.418838">
        <ele>419.579087</ele>
        <time>2024-07-02T13:23:01.180Z</time>
      </trkpt>
      <trkpt lat="47.140295" lon="15.418367">
        <ele>420.221577</ele>
        <time>2024-07-02T13:23:20.348Z</time>
      </trkpt>
      <trkpt lat="47.140300" lon="15.418364">
        <ele>420.225660</ele>
        <time>2024-07-02T13:23:20.474Z</time>
      </trkpt>
      <trkpt lat="47.140472" lon="15.418286">
        <ele>420.361761</ele>
        <time>2024-07-02T13:23:24.833Z</time>
      </trkpt>
      <trkpt lat="47.140665" lon="15.418259">
        <ele>420.509003</ele>
        <time>2024-07-02T13:23:29.861Z</time>
      </trkpt>
      <trkpt lat="47.140826" lon="15.418302">
        <ele>420.930482</ele>
        <time>2024-07-02T13:23:34.086Z</time>
      </trkpt>
      <trkpt lat="47.141240" lon="15.418481">
        <ele>422.041993</ele>
        <time>2024-07-02T13:23:46.353Z</time>
      </trkpt>
      <trkpt lat="47.141435" lon="15.418549">
        <ele>422.558195</ele>
        <time>2024-07-02T13:23:52.292Z</time>
      </trkpt>
      <trkpt lat="47.141618" lon="15.418612">
        <ele>423.042304</ele>
        <time>2024-07-02T13:23:57.813Z</time>
      </trkpt>
      <trkpt lat="47.142206" lon="15.418638">
        <ele>424.557516</ele>
        <time>2024-07-02T13:24:17.132Z</time>
      </trkpt>
      <trkpt lat="47.142733" lon="15.418823">
        <ele>426.634257</ele>
        <time>2024-07-02T13:24:40.331Z</time>
      </trkpt>
      <trkpt lat="47.143236" lon="15.419007">
        <ele>429.089078</ele>
        <time>2024-07-02T13:25:03.456Z</time>
      </trkpt>
      <trkpt lat="47.143468" lon="15.419059">
        <ele>430.200517</ele>
        <time>2024-07-02T13:25:14.333Z</time>
      </trkpt>
      <trkpt lat="47.143630" lon="15.419059">
        <ele>430.967744</ele>
        <time>2024-07-02T13:25:21.537Z</time>
      </trkpt>
      <trkpt lat="47.143698" lon="15.419059">
        <ele>431.289790</ele>
        <time>2024-07-02T13:25:24.494Z</time>
      </trkpt>
      <trkpt lat="47.144001" lon="15.419048">
        <ele>432.725226</ele>
        <time>2024-07-02T13:25:37.578Z</time>
      </trkpt>
      <trkpt lat="47.144153" lon="15.419042">
        <ele>433.445352</ele>
        <time>2024-07-02T13:25:44.078Z</time>
      </trkpt>
      <trkpt lat="47.144323" lon="15.419036">
        <ele>434.035214</ele>
        <time>2024-07-02T13:25:50.925Z</time>
      </trkpt>
      <trkpt lat="47.144471" lon="15.419019">
        <ele>434.482140</ele>
        <time>2024-07-02T13:25:57.216Z</time>
      </trkpt>
      <trkpt lat="47.144818" lon="15.418859">
        <ele>435.576987</ele>
        <time>2024-07-02T13:26:11.846Z</time>
      </trkpt>
      <trkpt lat="47.145181" lon="15.418692">
        <ele>436.722085</ele>
        <time>2024-07-02T13:26:25.932Z</time>
      </trkpt>
      <trkpt lat="47.145218" lon="15.418677">
        <ele>436.837634</ele>
        <time>2024-07-02T13:26:27.042Z</time>
      </trkpt>
      <trkpt lat="47.145623" lon="15.418488">
        <ele>438.116870</ele>
        <time>2024-07-02T13:26:39.487Z</time>
      </trkpt>
      <trkpt lat="47.145719" lon="15.418431">
        <ele>438.428564</ele>
        <time>2024-07-02T13:26:42.239Z</time>
      </trkpt>
      <trkpt lat="47.147426" lon="15.417351">
        <ele>441.540020</ele>
        <time>2024-07-02T13:27:28.423Z</time>
      </trkpt>
      <trkpt lat="47.147904" lon="15.417093">
        <ele>443.112543</ele>
        <time>2024-07-02T13:27:44.762Z</time>
      </trkpt>
      <trkpt lat="47.148307" lon="15.416907">
        <ele>444.709957</ele>
        <time>2024-07-02T13:27:59.984Z</time>
      </trkpt>
      <trkpt lat="47.148495" lon="15.416825">
        <ele>445.451572</ele>
        <time>2024-07-02T13:28:07.844Z</time>
      </trkpt>
      <trkpt lat="47.149332" lon="15.416386">
        <ele>448.900266</ele>
        <time>2024-07-02T13:28:45.672Z</time>
      </trkpt>
      <trkpt lat="47.150177" lon="15.416004">
        <ele>453.478879</ele>
        <time>2024-07-02T13:29:25.415Z</time>
      </trkpt>
      <trkpt lat="47.150444" lon="15.416012">
        <ele>454.862018</ele>
        <time>2024-07-02T13:29:37.264Z</time>
      </trkpt>
      <trkpt lat="47.151708" lon="15.416373">
        <ele>461.991697</ele>
        <time>2024-07-02T13:30:37.349Z</time>
      </trkpt>
      <trkpt lat="47.152360" lon="15.416663">
        <ele>465.966154</ele>
        <time>2024-07-02T13:31:10.486Z</time>
      </trkpt>
      <trkpt lat="47.152841" lon="15.416890">
        <ele>469.037733</ele>
        <time>2024-07-02T13:31:35.946Z</time>
      </trkpt>
      <trkpt lat="47.153246" lon="15.416983">
        <ele>471.990352</ele>
        <time>2024-07-02T13:31:56.423Z</time>
      </trkpt>
      <trkpt lat="47.153947" lon="15.417178">
        <ele>477.129291</ele>
        <time>2024-07-02T13:32:34.826Z</time>
      </trkpt>
      <trkpt lat="47.153972" lon="15.417188">
        <ele>477.315912</ele>
        <time>2024-07-02T13:32:36.247Z</time>
      </trkpt>
      <trkpt lat="47.154713" lon="15.417409">
        <ele>483.485848</ele>
        <time>2024-07-02T13:33:21.190Z</time>
      </trkpt>
      <trkpt lat="47.154984" lon="15.417694">
        <ele>487.107420</ele>
        <time>2024-07-02T13:33:43.974Z</time>
      </trkpt>
      <trkpt lat="47.155048" lon="15.417773">
        <ele>488.015705</ele>
        <time>2024-07-02T13:33:49.611Z</time>
      </trkpt>
      <trkpt lat="47.155256" lon="15.418013">
        <ele>490.889590</ele>
        <time>2024-07-02T13:34:08.474Z</time>
      </trkpt>
      <trkpt lat="47.155285" lon="15.418173">
        <ele>492.113568</ele>
        <time>2024-07-02T13:34:17.785Z</time>
      </trkpt>
      <trkpt lat="47.155513" lon="15.418491">
        <ele>495.529358</ele>
        <time>2024-07-02T13:34:46.295Z</time>
      </trkpt>
      <trkpt lat="47.155594" lon="15.418614">
        <ele>496.795003</ele>
        <time>2024-07-02T13:34:57.369Z</time>
      </trkpt>
      <trkpt lat="47.155755" lon="15.418745">
        <ele>498.795110</ele>
        <time>2024-07-02T13:35:15.471Z</time>
      </trkpt>
      <trkpt lat="47.155992" lon="15.418932">
        <ele>501.702755</ele>
        <time>2024-07-02T13:35:43.088Z</time>
      </trkpt>
      <trkpt lat="47.156048" lon="15.419011">
        <ele>502.530000</ele>
        <time>2024-07-02T13:35:51.706Z</time>
      </trkpt>
      <trkpt lat="47.156128" lon="15.419119">
        <ele>503.687683</ele>
        <time>2024-07-02T13:36:01.167Z</time>
      </trkpt>
      <trkpt lat="47.156503" lon="15.419232">
        <ele>507.768347</ele>
        <time>2024-07-02T13:36:37.032Z</time>
      </trkpt>
      <trkpt lat="47.157051" lon="15.419504">
        <ele>513.933948</ele>
        <time>2024-07-02T13:37:24.389Z</time>
      </trkpt>
      <trkpt lat="47.157263" lon="15.419520">
        <ele>516.196901</ele>
        <time>2024-07-02T13:37:37.953Z</time>
      </trkpt>
      <trkpt lat="47.157323" lon="15.419575">
        <ele>516.950599</ele>
        <time>2024-07-02T13:37:43.052Z</time>
      </trkpt>
      <trkpt lat="47.157294" lon="15.419660">
        <ele>517.639959</ele>
        <time>2024-07-02T13:37:48.262Z</time>
      </trkpt>
      <trkpt lat="47.157256" lon="15.419689">
        <ele>518.096346</ele>
        <time>2024-07-02T13:37:50.690Z</time>
      </trkpt>
      <trkpt lat="47.157013" lon="15.419614">
        <ele>520.350847</ele>
        <time>2024-07-02T13:38:03.909Z</time>
      </trkpt>
      <trkpt lat="47.156006" lon="15.419757">
        <ele>524.888670</ele>
        <time>2024-07-02T13:38:48.308Z</time>
      </trkpt>
      <trkpt lat="47.155200" lon="15.419590">
        <ele>528.843987</ele>
        <time>2024-07-02T13:39:15.356Z</time>
      </trkpt>
      <trkpt lat="47.154875" lon="15.419651">
        <ele>531.414891</ele>
        <time>2024-07-02T13:39:29.999Z</time>
      </trkpt>
      <trkpt lat="47.154471" lon="15.419667">
        <ele>534.586156</ele>
        <time>2024-07-02T13:39:52.590Z</time>
      </trkpt>
      <trkpt lat="47.154154" lon="15.420075">
        <ele>537.891780</ele>
        <time>2024-07-02T13:40:22.045Z</time>
      </trkpt>
      <trkpt lat="47.154027" lon="15.420181">
        <ele>539.037657</ele>
        <time>2024-07-02T13:40:32.182Z</time>
      </trkpt>
      <trkpt lat="47.153450" lon="15.420531">
        <ele>545.039741</ele>
        <time>2024-07-02T13:41:18.185Z</time>
      </trkpt>
      <trkpt lat="47.153034" lon="15.420659">
        <ele>550.556356</ele>
        <time>2024-07-02T13:41:53.599Z</time>
      </trkpt>
      <trkpt lat="47.153006" lon="15.420717">
        <ele>551.184205</ele>
        <time>2024-07-02T13:41:59.402Z</time>
      </trkpt>
      <trkpt lat="47.153012" lon="15.420775">
        <ele>551.702058</ele>
        <time>2024-07-02T13:42:04.336Z</time>
      </trkpt>
      <trkpt lat="47.153057" lon="15.420834">
        <ele>552.484614</ele>
        <time>2024-07-02T13:42:09.514Z</time>
      </trkpt>
      <trkpt lat="47.153256" lon="15.420803">
        <ele>555.082085</ele>
        <time>2024-07-02T13:42:24.787Z</time>
      </trkpt>
      <trkpt lat="47.154003" lon="15.420954">
        <ele>564.869317</ele>
        <time>2024-07-02T13:43:34.397Z</time>
      </trkpt>
      <trkpt lat="47.154179" lon="15.420961">
        <ele>567.386452</ele>
        <time>2024-07-02T13:43:51.599Z</time>
      </trkpt>
      <trkpt lat="47.155016" lon="15.420870">
        <ele>579.898035</ele>
        <time>2024-07-02T13:45:06.913Z</time>
      </trkpt>
      <trkpt lat="47.155837" lon="15.421163">
        <ele>592.480635</ele>
        <time>2024-07-02T13:46:34.019Z</time>
      </trkpt>
      <trkpt lat="47.156149" lon="15.421355">
        <ele>596.835965</ele>
        <time>2024-07-02T13:47:09.381Z</time>
      </trkpt>
      <trkpt lat="47.157096" lon="15.422483">
        <ele>612.529199</ele>
        <time>2024-07-02T13:48:58.918Z</time>
      </trkpt>
      <trkpt lat="47.157334" lon="15.422675">
        <ele>615.784460</ele>
        <time>2024-07-02T13:49:15.657Z</time>
      </trkpt>
      <trkpt lat="47.157682" lon="15.422786">
        <ele>617.954867</ele>
        <time>2024-07-02T13:49:32.611Z</time>
      </trkpt>
      <trkpt lat="47.158273" lon="15.422842">
        <ele>621.564532</ele>
        <time>2024-07-02T13:50:01.511Z</time>
      </trkpt>
      <trkpt lat="47.158433" lon="15.422892">
        <ele>622.561519</ele>
        <time>2024-07-02T13:50:09.338Z</time>
      </trkpt>
      <trkpt lat="47.158507" lon="15.422796">
        <ele>623.162964</ele>
        <time>2024-07-02T13:50:13.882Z</time>
      </trkpt>
      <trkpt lat="47.158527" lon="15.422709">
        <ele>623.543583</ele>
        <time>2024-07-02T13:50:16.900Z</time>
      </trkpt>
      <trkpt lat="47.158511" lon="15.422468">
        <ele>624.547155</ele>
        <time>2024-07-02T13:50:24.583Z</time>
      </trkpt>
      <trkpt lat="47.158540" lon="15.422342">
        <ele>625.098464</ele>
        <time>2024-07-02T13:50:28.219Z</time>
      </trkpt>
      <trkpt lat="47.158660" lon="15.422107">
        <ele>626.316474</ele>
        <time>2024-07-02T13:50:37.708Z</time>
      </trkpt>
      <trkpt lat="47.158872" lon="15.421863">
        <ele>628.801778</ele>
        <time>2024-07-02T13:50:50.677Z</time>
      </trkpt>
      <trkpt lat="47.158965" lon="15.421820">
        <ele>629.747862</ele>
        <time>2024-07-02T13:50:55.071Z</time>
      </trkpt>
      <trkpt lat="47.159149" lon="15.421857">
        <ele>631.550128</ele>
        <time>2024-07-02T13:51:04.991Z</time>
      </trkpt>
      <trkpt lat="47.159388" lon="15.421985">
        <ele>634.018542</ele>
        <time>2024-07-02T13:51:19.637Z</time>
      </trkpt>
      <trkpt lat="47.160300" lon="15.422654">
        <ele>643.909025</ele>
        <time>2024-07-02T13:52:42.632Z</time>
      </trkpt>
      <trkpt lat="47.160669" lon="15.423065">
        <ele>650.784910</ele>
        <time>2024-07-02T13:53:26.088Z</time>
      </trkpt>
      <trkpt lat="47.161109" lon="15.423370">
        <ele>658.054460</ele>
        <time>2024-07-02T13:54:12.853Z</time>
      </trkpt>
      <trkpt lat="47.162123" lon="15.424594">
        <ele>678.025508</ele>
        <time>2024-07-02T13:56:25.764Z</time>
      </trkpt>
      <trkpt lat="47.162792" lon="15.425160">
        <ele>690.181942</ele>
        <time>2024-07-02T13:57:43.994Z</time>
      </trkpt>
      <trkpt lat="47.163240" lon="15.425605">
        <ele>698.696905</ele>
        <time>2024-07-02T13:58:36.981Z</time>
      </trkpt>
      <trkpt lat="47.163337" lon="15.425674">
        <ele>700.296721</ele>
        <time>2024-07-02T13:58:47.683Z</time>
      </trkpt>
      <trkpt lat="47.163458" lon="15.425827">
        <ele>702.605651</ele>
        <time>2024-07-02T13:59:03.070Z</time>
      </trkpt>
      <trkpt lat="47.163573" lon="15.426241">
        <ele>707.005431</ele>
        <time>2024-07-02T13:59:33.292Z</time>
      </trkpt>
      <trkpt lat="47.163632" lon="15.426226">
        <ele>707.871806</ele>
        <time>2024-07-02T13:59:38.813Z</time>
      </trkpt>
      <trkpt lat="47.163656" lon="15.426222">
        <ele>708.221302</ele>
        <time>2024-07-02T13:59:41.083Z</time>
      </trkpt>
      <trkpt lat="47.163863" lon="15.426224">
        <ele>711.216603</ele>
        <time>2024-07-02T14:00:01.037Z</time>
      </trkpt>
      <trkpt lat="47.164068" lon="15.426220">
        <ele>714.183160</ele>
        <time>2024-07-02T14:00:20.331Z</time>
      </trkpt>
      <trkpt lat="47.164360" lon="15.426175">
        <ele>718.431454</ele>
        <time>2024-07-02T14:00:47.369Z</time>
      </trkpt>
      <trkpt lat="47.164429" lon="15.426138">
        <ele>719.494151</ele>
        <time>2024-07-02T14:00:54.249Z</time>
      </trkpt>
      <trkpt lat="47.164799" lon="15.425906">
        <ele>725.278122</ele>
        <time>2024-07-02T14:01:29.330Z</time>
      </trkpt>
      <trkpt lat="47.165124" lon="15.425886">
        <ele>728.118131</ele>
        <time>2024-07-02T14:01:55.895Z</time>
      </trkpt>
      <trkpt lat="47.165191" lon="15.425892">
        <ele>728.704181</ele>
        <time>2024-07-02T14:02:00.757Z</time>
      </trkpt>
      <trkpt lat="47.165614" lon="15.425853">
        <ele>732.404580</ele>
        <time>2024-07-02T14:02:30.642Z</time>
      </trkpt>
      <trkpt lat="47.165775" lon="15.425711">
        <ele>734.043599</ele>
        <time>2024-07-02T14:02:42.904Z</time>
      </trkpt>
      <trkpt lat="47.165983" lon="15.425273">
        <ele>737.214964</ele>
        <time>2024-07-02T14:03:04.226Z</time>
      </trkpt>
      <trkpt lat="47.166129" lon="15.424791">
        <ele>740.347179</ele>
        <time>2024-07-02T14:03:21.019Z</time>
      </trkpt>
      <trkpt lat="47.166254" lon="15.424552">
        <ele>741.148771</ele>
        <time>2024-07-02T14:03:28.172Z</time>
      </trkpt>
      <trkpt lat="47.166468" lon="15.424234">
        <ele>741.635564</ele>
        <time>2024-07-02T14:03:37.445Z</time>
      </trkpt>
      <trkpt lat="47.166548" lon="15.424051">
        <ele>741.872267</ele>
        <time>2024-07-02T14:03:41.668Z</time>
      </trkpt>
      <trkpt lat="47.166560" lon="15.423783">
        <ele>742.164470</ele>
        <time>2024-07-02T14:03:45.900Z</time>
      </trkpt>
      <trkpt lat="47.166539" lon="15.423511">
        <ele>742.462295</ele>
        <time>2024-07-02T14:03:50.330Z</time>
      </trkpt>
      <trkpt lat="47.166249" lon="15.422685">
        <ele>743.473698</ele>
        <time>2024-07-02T14:04:03.256Z</time>
      </trkpt>
      <trkpt lat="47.166226" lon="15.422290">
        <ele>743.893449</ele>
        <time>2024-07-02T14:04:08.892Z</time>
      </trkpt>
      <trkpt lat="47.166295" lon="15.421934">
        <ele>744.249510</ele>
        <time>2024-07-02T14:04:14.070Z</time>
      </trkpt>
      <trkpt lat="47.166351" lon="15.421760">
        <ele>744.434677</ele>
        <time>2024-07-02T14:04:16.644Z</time>
      </trkpt>
      <trkpt lat="47.167069" lon="15.420429">
        <ele>746.068924</ele>
        <time>2024-07-02T14:04:54.486Z</time>
      </trkpt>
      <trkpt lat="47.167195" lon="15.420400">
        <ele>746.249351</ele>
        <time>2024-07-02T14:05:00.172Z</time>
      </trkpt>
      <trkpt lat="47.167331" lon="15.420238">
        <ele>746.001760</ele>
        <time>2024-07-02T14:05:05.514Z</time>
      </trkpt>
      <trkpt lat="47.167806" lon="15.420017">
        <ele>744.333559</ele>
        <time>2024-07-02T14:05:19.397Z</time>
      </trkpt>
      <trkpt lat="47.168227" lon="15.419889">
        <ele>742.894048</ele>
        <time>2024-07-02T14:05:30.206Z</time>
      </trkpt>
      <trkpt lat="47.168276" lon="15.419655">
        <ele>742.336660</ele>
        <time>2024-07-02T14:05:34.103Z</time>
      </trkpt>
      <trkpt lat="47.168379" lon="15.419171">
        <ele>741.182137</ele>
        <time>2024-07-02T14:05:42.229Z</time>
      </trkpt>
      <trkpt lat="47.168280" lon="15.418862">
        <ele>740.404514</ele>
        <time>2024-07-02T14:05:47.859Z</time>
      </trkpt>
      <trkpt lat="47.168273" lon="15.418642">
        <ele>739.960447</ele>
        <time>2024-07-02T14:05:51.407Z</time>
      </trkpt>
      <trkpt lat="47.168297" lon="15.418489">
        <ele>739.651307</ele>
        <time>2024-07-02T14:05:53.879Z</time>
      </trkpt>
      <trkpt lat="47.168324" lon="15.418409">
        <ele>739.475463</ele>
        <time>2024-07-02T14:05:55.379Z</time>
      </trkpt>
      <trkpt lat="47.168382" lon="15.418452">
        <ele>739.287370</ele>
        <time>2024-07-02T14:05:56.907Z</time>
      </trkpt>
      <trkpt lat="47.168474" lon="15.418463">
        <ele>739.020065</ele>
        <time>2024-07-02T14:05:59.070Z</time>
      </trkpt>
      <trkpt lat="47.168413" lon="15.418364">
        <ele>738.757014</ele>
        <time>2024-07-02T14:06:00.277Z</time>
      </trkpt>
      <trkpt lat="47.168329" lon="15.418136">
        <ele>738.246453</ele>
        <time>2024-07-02T14:06:02.655Z</time>
      </trkpt>
      <trkpt lat="47.168312" lon="15.417765">
        <ele>737.514373</ele>
        <time>2024-07-02T14:06:05.991Z</time>
      </trkpt>
      <trkpt lat="47.168367" lon="15.417635">
        <ele>737.212917</ele>
        <time>2024-07-02T14:06:07.371Z</time>
      </trkpt>
      <trkpt lat="47.168453" lon="15.417523">
        <ele>736.880278</ele>
        <time>2024-07-02T14:06:09.007Z</time>
      </trkpt>
      <trkpt lat="47.168568" lon="15.417455">
        <ele>736.521343</ele>
        <time>2024-07-02T14:06:10.718Z</time>
      </trkpt>
      <trkpt lat="47.168755" lon="15.417412">
        <ele>735.973226</ele>
        <time>2024-07-02T14:06:14.466Z</time>
      </trkpt>
      <trkpt lat="47.168812" lon="15.417375">
        <ele>735.792799</ele>
        <time>2024-07-02T14:06:16.136Z</time>
      </trkpt>
      <trkpt lat="47.168854" lon="15.417299">
        <ele>735.599973</ele>
        <time>2024-07-02T14:06:17.731Z</time>
      </trkpt>
      <trkpt lat="47.168895" lon="15.417173">
        <ele>735.324956</ele>
        <time>2024-07-02T14:06:20.701Z</time>
      </trkpt>
      <trkpt lat="47.168985" lon="15.416899">
        <ele>736.449168</ele>
        <time>2024-07-02T14:06:31.593Z</time>
      </trkpt>
      <trkpt lat="47.168936" lon="15.416751">
        <ele>737.547940</ele>
        <time>2024-07-02T14:06:37.272Z</time>
      </trkpt>
      <trkpt lat="47.168872" lon="15.416345">
        <ele>740.329763</ele>
        <time>2024-07-02T14:06:55.216Z</time>
      </trkpt>
      <trkpt lat="47.168803" lon="15.415586">
        <ele>745.440961</ele>
        <time>2024-07-02T14:07:33.249Z</time>
      </trkpt>
      <trkpt lat="47.168847" lon="15.415375">
        <ele>746.914089</ele>
        <time>2024-07-02T14:07:47.262Z</time>
      </trkpt>
      <trkpt lat="47.168942" lon="15.415173">
        <ele>748.553553</ele>
        <time>2024-07-02T14:08:02.231Z</time>
      </trkpt>
      <trkpt lat="47.169117" lon="15.414919">
        <ele>750.967337</ele>
        <time>2024-07-02T14:08:26.331Z</time>
      </trkpt>
      <trkpt lat="47.169303" lon="15.414746">
        <ele>753.240426</ele>
        <time>2024-07-02T14:08:48.499Z</time>
      </trkpt>
      <trkpt lat="47.169484" lon="15.414642">
        <ele>755.760716</ele>
        <time>2024-07-02T14:09:08.800Z</time>
      </trkpt>
      <trkpt lat="47.170156" lon="15.414429">
        <ele>764.676510</ele>
        <time>2024-07-02T14:10:21.810Z</time>
      </trkpt>
      <trkpt lat="47.170342" lon="15.414285">
        <ele>767.402628</ele>
        <time>2024-07-02T14:10:43.172Z</time>
      </trkpt>
      <trkpt lat="47.170607" lon="15.414009">
        <ele>771.613941</ele>
        <time>2024-07-02T14:11:13.479Z</time>
      </trkpt>
      <trkpt lat="47.170855" lon="15.413634">
        <ele>776.182667</ele>
        <time>2024-07-02T14:11:43.769Z</time>
      </trkpt>
      <trkpt lat="47.171176" lon="15.413289">
        <ele>779.459831</ele>
        <time>2024-07-02T14:12:16.443Z</time>
      </trkpt>
      <trkpt lat="47.171661" lon="15.412448">
        <ele>785.640072</ele>
        <time>2024-07-02T14:13:11.930Z</time>
      </trkpt>
      <trkpt lat="47.172375" lon="15.411502">
        <ele>793.768471</ele>
        <time>2024-07-02T14:14:11.708Z</time>
      </trkpt>
      <trkpt lat="47.172525" lon="15.411337">
        <ele>795.434162</ele>
        <time>2024-07-02T14:14:24.379Z</time>
      </trkpt>
      <trkpt lat="47.173028" lon="15.410988">
        <ele>800.380041</ele>
        <time>2024-07-02T14:15:05.112Z</time>
      </trkpt>
      <trkpt lat="47.173192" lon="15.410830">
        <ele>802.123469</ele>
        <time>2024-07-02T14:15:20.147Z</time>
      </trkpt>
      <trkpt lat="47.173304" lon="15.410673">
        <ele>803.499312</ele>
        <time>2024-07-02T14:15:33.476Z</time>
      </trkpt>
      <trkpt lat="47.173434" lon="15.410176">
        <ele>806.718641</ele>
        <time>2024-07-02T14:16:09.756Z</time>
      </trkpt>
      <trkpt lat="47.173456" lon="15.409824">
        <ele>809.266390</ele>
        <time>2024-07-02T14:16:29.956Z</time>
      </trkpt>
      <trkpt lat="47.173520" lon="15.409372">
        <ele>812.652449</ele>
        <time>2024-07-02T14:16:54.979Z</time>
      </trkpt>
      <trkpt lat="47.173518" lon="15.409130">
        <ele>814.427378</ele>
        <time>2024-07-02T14:17:11.042Z</time>
      </trkpt>
      <trkpt lat="47.173434" lon="15.408725">
        <ele>817.532775</ele>
        <time>2024-07-02T14:17:34.570Z</time>
      </trkpt>
      <trkpt lat="47.173417" lon="15.408471">
        <ele>819.404589</ele>
        <time>2024-07-02T14:17:49.933Z</time>
      </trkpt>
      <trkpt lat="47.173469" lon="15.408072">
        <ele>822.384101</ele>
        <time>2024-07-02T14:18:15.573Z</time>
      </trkpt>
      <trkpt lat="47.173972" lon="15.407751">
        <ele>828.091393</ele>
        <time>2024-07-02T14:18:59.203Z</time>
      </trkpt>
      <trkpt lat="47.174381" lon="15.407625">
        <ele>832.122751</ele>
        <time>2024-07-02T14:19:33.627Z</time>
      </trkpt>
      <trkpt lat="47.174625" lon="15.407306">
        <ele>835.271959</ele>
        <time>2024-07-02T14:19:59.246Z</time>
      </trkpt>
      <trkpt lat="47.174756" lon="15.407064">
        <ele>837.300710</ele>
        <time>2024-07-02T14:20:16.405Z</time>
      </trkpt>
      <trkpt lat="47.175097" lon="15.406241">
        <ele>843.621446</ele>
        <time>2024-07-02T14:21:06.479Z</time>
      </trkpt>
      <trkpt lat="47.175174" lon="15.405872">
        <ele>845.713094</ele>
        <time>2024-07-02T14:21:29.030Z</time>
      </trkpt>
      <trkpt lat="47.175218" lon="15.405499">
        <ele>847.753392</ele>
        <time>2024-07-02T14:21:49.915Z</time>
      </trkpt>
      <trkpt lat="47.175191" lon="15.404625">
        <ele>852.468605</ele>
        <time>2024-07-02T14:22:31.604Z</time>
      </trkpt>
      <trkpt lat="47.175265" lon="15.404419">
        <ele>853.724316</ele>
        <time>2024-07-02T14:22:43.422Z</time>
      </trkpt>
      <trkpt lat="47.175849" lon="15.403825">
        <ele>859.367797</ele>
        <time>2024-07-02T14:23:28.601Z</time>
      </trkpt>
      <trkpt lat="47.176061" lon="15.403719">
        <ele>861.161155</ele>
        <time>2024-07-02T14:23:41.759Z</time>
      </trkpt>
      <trkpt lat="47.176246" lon="15.403667">
        <ele>862.669675</ele>
        <time>2024-07-02T14:23:54.290Z</time>
      </trkpt>
      <trkpt lat="47.176608" lon="15.403715">
        <ele>865.580787</ele>
        <time>2024-07-02T14:24:17.453Z</time>
      </trkpt>
      <trkpt lat="47.176882" lon="15.403291">
        <ele>868.765829</ele>
        <time>2024-07-02T14:24:42.938Z</time>
      </trkpt>
      <trkpt lat="47.176988" lon="15.403079">
        <ele>870.198617</ele>
        <time>2024-07-02T14:24:56.866Z</time>
      </trkpt>
      <trkpt lat="47.177024" lon="15.402893">
        <ele>871.251488</ele>
        <time>2024-07-02T14:25:07.673Z</time>
      </trkpt>
      <trkpt lat="47.177017" lon="15.402682">
        <ele>872.440000</ele>
        <time>2024-07-02T14:25:20.935Z</time>
      </trkpt>
      <trkpt lat="47.176970" lon="15.402347">
        <ele>875.728906</ele>
        <time>2024-07-02T14:25:43.644Z</time>
      </trkpt>
      <trkpt lat="47.176569" lon="15.401211">
        <ele>888.036544</ele>
        <time>2024-07-02T14:27:20.887Z</time>
      </trkpt>
      <trkpt lat="47.176302" lon="15.400281">
        <ele>897.743415</ele>
        <time>2024-07-02T14:28:35.958Z</time>
      </trkpt>
      <trkpt lat="47.176181" lon="15.399413">
        <ele>901.927281</ele>
        <time>2024-07-02T14:29:29.188Z</time>
      </trkpt>
      <trkpt lat="47.176291" lon="15.398874">
        <ele>904.568308</ele>
        <time>2024-07-02T14:29:54.167Z</time>
      </trkpt>
      <trkpt lat="47.176457" lon="15.398539">
        <ele>906.513819</ele>
        <time>2024-07-02T14:30:09.259Z</time>
      </trkpt>
      <trkpt lat="47.176824" lon="15.398021">
        <ele>910.025115</ele>
        <time>2024-07-02T14:30:31.662Z</time>
      </trkpt>
      <trkpt lat="47.177367" lon="15.397448">
        <ele>910.312727</ele>
        <time>2024-07-02T14:30:54.999Z</time>
      </trkpt>
      <trkpt lat="47.177593" lon="15.397159">
        <ele>910.360130</ele>
        <time>2024-07-02T14:31:04.089Z</time>
      </trkpt>
      <trkpt lat="47.177624" lon="15.397077">
        <ele>910.370227</ele>
        <time>2024-07-02T14:31:05.881Z</time>
      </trkpt>
      <trkpt lat="47.177628" lon="15.396976">
        <ele>910.381113</ele>
        <time>2024-07-02T14:31:07.917Z</time>
      </trkpt>
      <trkpt lat="47.177484" lon="15.396290">
        <ele>910.458369</ele>
        <time>2024-07-02T14:31:21.818Z</time>
      </trkpt>
      <trkpt lat="47.177392" lon="15.395285">
        <ele>910.944838</ele>
        <time>2024-07-02T14:31:44.834Z</time>
      </trkpt>
      <trkpt lat="47.177201" lon="15.394217">
        <ele>911.690420</ele>
        <time>2024-07-02T14:32:18.424Z</time>
      </trkpt>
      <trkpt lat="47.177080" lon="15.394043">
        <ele>911.858478</ele>
        <time>2024-07-02T14:32:23.950Z</time>
      </trkpt>
      <trkpt lat="47.176958" lon="15.393998">
        <ele>911.983403</ele>
        <time>2024-07-02T14:32:29.081Z</time>
      </trkpt>
      <trkpt lat="47.176709" lon="15.394111">
        <ele>912.242218</ele>
        <time>2024-07-02T14:32:37.627Z</time>
      </trkpt>
      <trkpt lat="47.176218" lon="15.394178">
        <ele>911.904141</ele>
        <time>2024-07-02T14:32:52.800Z</time>
      </trkpt>
      <trkpt lat="47.175910" lon="15.394222">
        <ele>911.645528</ele>
        <time>2024-07-02T14:33:01.958Z</time>
      </trkpt>
      <trkpt lat="47.174883" lon="15.394566">
        <ele>910.761908</ele>
        <time>2024-07-02T14:33:32.535Z</time>
      </trkpt>
      <trkpt lat="47.173581" lon="15.395319">
        <ele>909.310931</ele>
        <time>2024-07-02T14:34:10.593Z</time>
      </trkpt>
      <trkpt lat="47.172982" lon="15.395623">
        <ele>909.625090</ele>
        <time>2024-07-02T14:34:33.558Z</time>
      </trkpt>
      <trkpt lat="47.172275" lon="15.396294">
        <ele>912.011984</ele>
        <time>2024-07-02T14:35:17.739Z</time>
      </trkpt>
      <trkpt lat="47.172049" lon="15.396641">
        <ele>912.938741</ele>
        <time>2024-07-02T14:35:35.458Z</time>
      </trkpt>
      <trkpt lat="47.171986" lon="15.396846">
        <ele>913.372609</ele>
        <time>2024-07-02T14:35:43.180Z</time>
      </trkpt>
      <trkpt lat="47.171946" lon="15.397155">
        <ele>913.979230</ele>
        <time>2024-07-02T14:35:52.770Z</time>
      </trkpt>
      <trkpt lat="47.171978" lon="15.397540">
        <ele>913.703413</ele>
        <time>2024-07-02T14:36:03.114Z</time>
      </trkpt>
      <trkpt lat="47.171952" lon="15.397758">
        <ele>913.515515</ele>
        <time>2024-07-02T14:36:08.456Z</time>
      </trkpt>
      <trkpt lat="47.171838" lon="15.397892">
        <ele>913.333281</ele>
        <time>2024-07-02T14:36:13.172Z</time>
      </trkpt>
      <trkpt lat="47.171669" lon="15.397960">
        <ele>913.114477</ele>
        <time>2024-07-02T14:36:18.445Z</time>
      </trkpt>
      <trkpt lat="47.171207" lon="15.398261">
        <ele>912.483465</ele>
        <time>2024-07-02T14:36:32.193Z</time>
      </trkpt>
      <trkpt lat="47.170800" lon="15.398607">
        <ele>911.896418</ele>
        <time>2024-07-02T14:36:44.136Z</time>
      </trkpt>
      <trkpt lat="47.169889" lon="15.399069">
        <ele>911.038718</ele>
        <time>2024-07-02T14:37:08.310Z</time>
      </trkpt>
      <trkpt lat="47.169562" lon="15.399296">
        <ele>910.732083</ele>
        <time>2024-07-02T14:37:18.968Z</time>
      </trkpt>
      <trkpt lat="47.169038" lon="15.399855">
        <ele>910.621326</ele>
        <time>2024-07-02T14:37:47.214Z</time>
      </trkpt>
      <trkpt lat="47.168750" lon="15.400023">
        <ele>912.224245</ele>
        <time>2024-07-02T14:38:04.310Z</time>
      </trkpt>
      <trkpt lat="47.168502" lon="15.400116">
        <ele>913.548365</ele>
        <time>2024-07-02T14:38:20.254Z</time>
      </trkpt>
      <trkpt lat="47.168372" lon="15.400377">
        <ele>914.686402</ele>
        <time>2024-07-02T14:38:34.746Z</time>
      </trkpt>
      <trkpt lat="47.168166" lon="15.400946">
        <ele>916.953854</ele>
        <time>2024-07-02T14:39:03.086Z</time>
      </trkpt>
      <trkpt lat="47.167910" lon="15.401401">
        <ele>919.031226</ele>
        <time>2024-07-02T14:39:27.035Z</time>
      </trkpt>
      <trkpt lat="47.167705" lon="15.402293">
        <ele>920.810566</ele>
        <time>2024-07-02T14:40:01.854Z</time>
      </trkpt>
      <trkpt lat="47.167391" lon="15.402726">
        <ele>921.815330</ele>
        <time>2024-07-02T14:40:21.494Z</time>
      </trkpt>
      <trkpt lat="47.167262" lon="15.402868">
        <ele>922.191462</ele>
        <time>2024-07-02T14:40:28.205Z</time>
      </trkpt>
      <trkpt lat="47.167028" lon="15.403004">
        <ele>922.778814</ele>
        <time>2024-07-02T14:40:38.043Z</time>
      </trkpt>
      <trkpt lat="47.166780" lon="15.402387">
        <ele>923.523376</ele>
        <time>2024-07-02T14:40:53.887Z</time>
      </trkpt>
      <trkpt lat="47.166472" lon="15.401254">
        <ele>920.904696</ele>
        <time>2024-07-02T14:41:17.027Z</time>
      </trkpt>
      <trkpt lat="47.166009" lon="15.399596">
        <ele>915.419573</ele>
        <time>2024-07-02T14:41:46.448Z</time>
      </trkpt>
      <trkpt lat="47.165778" lon="15.398908">
        <ele>911.111106</ele>
        <time>2024-07-02T14:41:58.024Z</time>
      </trkpt>
      <trkpt lat="47.165722" lon="15.398556">
        <ele>909.081257</ele>
        <time>2024-07-02T14:42:03.335Z</time>
      </trkpt>
      <trkpt lat="47.165637" lon="15.398397">
        <ele>907.945544</ele>
        <time>2024-07-02T14:42:06.297Z</time>
      </trkpt>
      <trkpt lat="47.165598" lon="15.398361">
        <ele>907.565278</ele>
        <time>2024-07-02T14:42:07.292Z</time>
      </trkpt>
      <trkpt lat="47.165501" lon="15.398385">
        <ele>906.752926</ele>
        <time>2024-07-02T14:42:09.376Z</time>
      </trkpt>
      <trkpt lat="47.165279" lon="15.398814">
        <ele>903.725726</ele>
        <time>2024-07-02T14:42:17.239Z</time>
      </trkpt>
      <trkpt lat="47.165027" lon="15.399109">
        <ele>901.204188</ele>
        <time>2024-07-02T14:42:24.175Z</time>
      </trkpt>
      <trkpt lat="47.164630" lon="15.399924">
        <ele>895.936707</ele>
        <time>2024-07-02T14:42:39.280Z</time>
      </trkpt>
      <trkpt lat="47.164514" lon="15.400088">
        <ele>894.693347</ele>
        <time>2024-07-02T14:42:42.912Z</time>
      </trkpt>
      <trkpt lat="47.164293" lon="15.400672">
        <ele>891.181804</ele>
        <time>2024-07-02T14:42:53.427Z</time>
      </trkpt>
      <trkpt lat="47.163958" lon="15.401831">
        <ele>884.602096</ele>
        <time>2024-07-02T14:43:13.484Z</time>
      </trkpt>
      <trkpt lat="47.163934" lon="15.402069">
        <ele>883.347825</ele>
        <time>2024-07-02T14:43:17.279Z</time>
      </trkpt>
      <trkpt lat="47.163907" lon="15.402141">
        <ele>882.919183</ele>
        <time>2024-07-02T14:43:18.570Z</time>
      </trkpt>
      <trkpt lat="47.163826" lon="15.402148">
        <ele>882.297060</ele>
        <time>2024-07-02T14:43:20.336Z</time>
      </trkpt>
      <trkpt lat="47.163830" lon="15.402259">
        <ele>881.717601</ele>
        <time>2024-07-02T14:43:22.195Z</time>
      </trkpt>
      <trkpt lat="47.163832" lon="15.402770">
        <ele>879.053698</ele>
        <time>2024-07-02T14:43:30.004Z</time>
      </trkpt>
      <trkpt lat="47.163759" lon="15.403124">
        <ele>877.125270</ele>
        <time>2024-07-02T14:43:35.515Z</time>
      </trkpt>
      <trkpt lat="47.163571" lon="15.403617">
        <ele>873.195660</ele>
        <time>2024-07-02T14:43:43.718Z</time>
      </trkpt>
      <trkpt lat="47.163445" lon="15.403751">
        <ele>871.134664</ele>
        <time>2024-07-02T14:43:47.034Z</time>
      </trkpt>
      <trkpt lat="47.163305" lon="15.404001">
        <ele>868.215785</ele>
        <time>2024-07-02T14:43:51.524Z</time>
      </trkpt>
      <trkpt lat="47.162971" lon="15.404301">
        <ele>863.028334</ele>
        <time>2024-07-02T14:43:59.486Z</time>
      </trkpt>
      <trkpt lat="47.162850" lon="15.404365">
        <ele>861.323919</ele>
        <time>2024-07-02T14:44:02.078Z</time>
      </trkpt>
      <trkpt lat="47.162706" lon="15.404441">
        <ele>859.296028</ele>
        <time>2024-07-02T14:44:05.154Z</time>
      </trkpt>
      <trkpt lat="47.162352" lon="15.404553">
        <ele>854.496423</ele>
        <time>2024-07-02T14:44:12.484Z</time>
      </trkpt>
      <trkpt lat="47.162093" lon="15.404521">
        <ele>851.134399</ele>
        <time>2024-07-02T14:44:17.820Z</time>
      </trkpt>
      <trkpt lat="47.162014" lon="15.404476">
        <ele>850.158415</ele>
        <time>2024-07-02T14:44:19.555Z</time>
      </trkpt>
      <trkpt lat="47.161806" lon="15.404456">
        <ele>847.757061</ele>
        <time>2024-07-02T14:44:23.904Z</time>
      </trkpt>
      <trkpt lat="47.161692" lon="15.404486">
        <ele>846.422880</ele>
        <time>2024-07-02T14:44:26.300Z</time>
      </trkpt>
      <trkpt lat="47.161452" lon="15.404212">
        <ele>842.922727</ele>
        <time>2024-07-02T14:44:32.713Z</time>
      </trkpt>
      <trkpt lat="47.161226" lon="15.403820">
        <ele>838.896905</ele>
        <time>2024-07-02T14:44:40.136Z</time>
      </trkpt>
      <trkpt lat="47.161131" lon="15.403733">
        <ele>837.607638</ele>
        <time>2024-07-02T14:44:42.514Z</time>
      </trkpt>
      <trkpt lat="47.161054" lon="15.403699">
        <ele>836.681452</ele>
        <time>2024-07-02T14:44:44.231Z</time>
      </trkpt>
      <trkpt lat="47.160679" lon="15.403657">
        <ele>832.348802</ele>
        <time>2024-07-02T14:44:52.201Z</time>
      </trkpt>
      <trkpt lat="47.160625" lon="15.403648">
        <ele>831.722720</ele>
        <time>2024-07-02T14:44:53.366Z</time>
      </trkpt>
      <trkpt lat="47.160505" lon="15.403717">
        <ele>830.221445</ele>
        <time>2024-07-02T14:44:56.071Z</time>
      </trkpt>
      <trkpt lat="47.160200" lon="15.403894">
        <ele>826.356116</ele>
        <time>2024-07-02T14:45:03.137Z</time>
      </trkpt>
      <trkpt lat="47.160085" lon="15.403930">
        <ele>824.970053</ele>
        <time>2024-07-02T14:45:05.695Z</time>
      </trkpt>
      <trkpt lat="47.159727" lon="15.403854">
        <ele>820.705982</ele>
        <time>2024-07-02T14:45:13.339Z</time>
      </trkpt>
      <trkpt lat="47.159470" lon="15.403880">
        <ele>817.669144</ele>
        <time>2024-07-02T14:45:18.696Z</time>
      </trkpt>
      <trkpt lat="47.159386" lon="15.403839">
        <ele>816.625787</ele>
        <time>2024-07-02T14:45:20.535Z</time>
      </trkpt>
      <trkpt lat="47.159000" lon="15.403829">
        <ele>812.074670</ele>
        <time>2024-07-02T14:45:28.506Z</time>
      </trkpt>
      <trkpt lat="47.158816" lon="15.403772">
        <ele>809.857963</ele>
        <time>2024-07-02T14:45:32.341Z</time>
      </trkpt>
      <trkpt lat="47.158528" lon="15.403816">
        <ele>806.525330</ele>
        <time>2024-07-02T14:45:38.310Z</time>
      </trkpt>
      <trkpt lat="47.158202" lon="15.403750">
        <ele>802.740442</ele>
        <time>2024-07-02T14:45:45.106Z</time>
      </trkpt>
      <trkpt lat="47.157938" lon="15.403648">
        <ele>799.600975</ele>
        <time>2024-07-02T14:45:50.779Z</time>
      </trkpt>
      <trkpt lat="47.157411" lon="15.403177">
        <ele>792.508076</ele>
        <time>2024-07-02T14:46:03.825Z</time>
      </trkpt>
      <trkpt lat="47.157236" lon="15.402964">
        <ele>789.895339</ele>
        <time>2024-07-02T14:46:08.754Z</time>
      </trkpt>
      <trkpt lat="47.157104" lon="15.402879">
        <ele>788.562324</ele>
        <time>2024-07-02T14:46:11.892Z</time>
      </trkpt>
      <trkpt lat="47.156949" lon="15.402831">
        <ele>787.446896</ele>
        <time>2024-07-02T14:46:15.328Z</time>
      </trkpt>
      <trkpt lat="47.156805" lon="15.402853">
        <ele>786.427408</ele>
        <time>2024-07-02T14:46:18.586Z</time>
      </trkpt>
      <trkpt lat="47.156311" lon="15.403070">
        <ele>782.796846</ele>
        <time>2024-07-02T14:46:30.071Z</time>
      </trkpt>
      <trkpt lat="47.156517" lon="15.403162">
        <ele>781.280801</ele>
        <time>2024-07-02T14:46:35.038Z</time>
      </trkpt>
      <trkpt lat="47.156856" lon="15.403248">
        <ele>778.858346</ele>
        <time>2024-07-02T14:46:42.956Z</time>
      </trkpt>
      <trkpt lat="47.157021" lon="15.403369">
        <ele>777.559987</ele>
        <time>2024-07-02T14:46:47.262Z</time>
      </trkpt>
      <trkpt lat="47.157358" lon="15.404172">
        <ele>776.406832</ele>
        <time>2024-07-02T14:47:03.237Z</time>
      </trkpt>
      <trkpt lat="47.157801" lon="15.404830">
        <ele>776.404412</ele>
        <time>2024-07-02T14:47:22.351Z</time>
      </trkpt>
      <trkpt lat="47.158053" lon="15.405048">
        <ele>776.403288</ele>
        <time>2024-07-02T14:47:34.165Z</time>
      </trkpt>
      <trkpt lat="47.158437" lon="15.405383">
        <ele>776.742506</ele>
        <time>2024-07-02T14:47:56.830Z</time>
      </trkpt>
      <trkpt lat="47.158578" lon="15.405473">
        <ele>777.833715</ele>
        <time>2024-07-02T14:48:06.384Z</time>
      </trkpt>
      <trkpt lat="47.158986" lon="15.405565">
        <ele>780.764053</ele>
        <time>2024-07-02T14:48:33.836Z</time>
      </trkpt>
      <trkpt lat="47.160299" lon="15.405961">
        <ele>790.471666</ele>
        <time>2024-07-02T14:50:10.486Z</time>
      </trkpt>
      <trkpt lat="47.160505" lon="15.406109">
        <ele>792.381651</ele>
        <time>2024-07-02T14:50:26.909Z</time>
      </trkpt>
      <trkpt lat="47.161413" lon="15.406946">
        <ele>801.309109</ele>
        <time>2024-07-02T14:51:47.218Z</time>
      </trkpt>
      <trkpt lat="47.161847" lon="15.407089">
        <ele>804.704455</ele>
        <time>2024-07-02T14:52:21.405Z</time>
      </trkpt>
      <trkpt lat="47.162847" lon="15.407564">
        <ele>810.302045</ele>
        <time>2024-07-02T14:53:29.180Z</time>
      </trkpt>
      <trkpt lat="47.163136" lon="15.407843">
        <ele>812.143456</ele>
        <time>2024-07-02T14:53:43.418Z</time>
      </trkpt>
      <trkpt lat="47.163222" lon="15.408045">
        <ele>813.006624</ele>
        <time>2024-07-02T14:53:48.190Z</time>
      </trkpt>
      <trkpt lat="47.163271" lon="15.408144">
        <ele>813.450109</ele>
        <time>2024-07-02T14:53:51.984Z</time>
      </trkpt>
      <trkpt lat="47.163327" lon="15.408167">
        <ele>813.739894</ele>
        <time>2024-07-02T14:53:55.320Z</time>
      </trkpt>
      <trkpt lat="47.163373" lon="15.408194">
        <ele>813.784764</ele>
        <time>2024-07-02T14:53:58.050Z</time>
      </trkpt>
      <trkpt lat="47.163379" lon="15.408310">
        <ele>813.856422</ele>
        <time>2024-07-02T14:54:01.157Z</time>
      </trkpt>
      <trkpt lat="47.163443" lon="15.408400">
        <ele>813.936641</ele>
        <time>2024-07-02T14:54:05.047Z</time>
      </trkpt>
      <trkpt lat="47.163461" lon="15.408495">
        <ele>813.997387</ele>
        <time>2024-07-02T14:54:08.966Z</time>
      </trkpt>
      <trkpt lat="47.163457" lon="15.408670">
        <ele>814.105242</ele>
        <time>2024-07-02T14:54:17.081Z</time>
      </trkpt>
      <trkpt lat="47.163488" lon="15.408873">
        <ele>814.233398</ele>
        <time>2024-07-02T14:54:23.351Z</time>
      </trkpt>
      <trkpt lat="47.163453" lon="15.409079">
        <ele>814.364188</ele>
        <time>2024-07-02T14:54:30.435Z</time>
      </trkpt>
      <trkpt lat="47.163463" lon="15.409188">
        <ele>814.431937</ele>
        <time>2024-07-02T14:54:34.979Z</time>
      </trkpt>
      <trkpt lat="47.163552" lon="15.409770">
        <ele>814.799383</ele>
        <time>2024-07-02T14:54:49.614Z</time>
      </trkpt>
      <trkpt lat="47.163593" lon="15.409840">
        <ele>814.856293</ele>
        <time>2024-07-02T14:54:51.308Z</time>
      </trkpt>
      <trkpt lat="47.163617" lon="15.409973">
        <ele>814.941053</ele>
        <time>2024-07-02T14:54:53.733Z</time>
      </trkpt>
      <trkpt lat="47.163899" lon="15.409698">
        <ele>815.247585</ele>
        <time>2024-07-02T14:55:03.402Z</time>
      </trkpt>
      <trkpt lat="47.164089" lon="15.409638">
        <ele>814.983003</ele>
        <time>2024-07-02T14:55:08.637Z</time>
      </trkpt>
      <trkpt lat="47.164241" lon="15.409687">
        <ele>814.059295</ele>
        <time>2024-07-02T14:55:12.782Z</time>
      </trkpt>
      <trkpt lat="47.164242" lon="15.409790">
        <ele>813.643548</ele>
        <time>2024-07-02T14:55:17.626Z</time>
      </trkpt>
      <trkpt lat="47.164430" lon="15.410069">
        <ele>812.058184</ele>
        <time>2024-07-02T14:55:36.201Z</time>
      </trkpt>
      <trkpt lat="47.164626" lon="15.410802">
        <ele>808.879273</ele>
        <time>2024-07-02T14:56:13.425Z</time>
      </trkpt>
      <trkpt lat="47.164773" lon="15.410985">
        <ele>807.736059</ele>
        <time>2024-07-02T14:56:18.226Z</time>
      </trkpt>
      <trkpt lat="47.165092" lon="15.411300">
        <ele>805.455262</ele>
        <time>2024-07-02T14:56:26.417Z</time>
      </trkpt>
      <trkpt lat="47.165336" lon="15.411476">
        <ele>802.788012</ele>
        <time>2024-07-02T14:56:31.928Z</time>
      </trkpt>
      <trkpt lat="47.165471" lon="15.411516">
        <ele>800.952382</ele>
        <time>2024-07-02T14:56:34.713Z</time>
      </trkpt>
      <trkpt lat="47.165514" lon="15.411574">
        <ele>800.174692</ele>
        <time>2024-07-02T14:56:35.889Z</time>
      </trkpt>
      <trkpt lat="47.165755" lon="15.412524">
        <ele>790.985549</ele>
        <time>2024-07-02T14:56:49.956Z</time>
      </trkpt>
      <trkpt lat="47.165931" lon="15.412857">
        <ele>787.163152</ele>
        <time>2024-07-02T14:56:55.836Z</time>
      </trkpt>
      <trkpt lat="47.166186" lon="15.413180">
        <ele>782.677446</ele>
        <time>2024-07-02T14:57:02.744Z</time>
      </trkpt>
      <trkpt lat="47.166768" lon="15.413845">
        <ele>773.553451</ele>
        <time>2024-07-02T14:57:18.063Z</time>
      </trkpt>
      <trkpt lat="47.167337" lon="15.414255">
        <ele>765.859453</ele>
        <time>2024-07-02T14:57:31.420Z</time>
      </trkpt>
      <trkpt lat="47.167580" lon="15.414344">
        <ele>762.818566</ele>
        <time>2024-07-02T14:57:36.675Z</time>
      </trkpt>
      <trkpt lat="47.167619" lon="15.414430">
        <ele>761.965129</ele>
        <time>2024-07-02T14:57:38.119Z</time>
      </trkpt>
      <trkpt lat="47.167757" lon="15.414468">
        <ele>760.260263</ele>
        <time>2024-07-02T14:57:41.043Z</time>
      </trkpt>
      <trkpt lat="47.167857" lon="15.414538">
        <ele>758.915452</ele>
        <time>2024-07-02T14:57:43.361Z</time>
      </trkpt>
      <trkpt lat="47.168337" lon="15.414656">
        <ele>753.321558</ele>
        <time>2024-07-02T14:57:53.410Z</time>
      </trkpt>
      <trkpt lat="47.168416" lon="15.414704">
        <ele>752.339479</ele>
        <time>2024-07-02T14:57:55.173Z</time>
      </trkpt>
      <trkpt lat="47.168656" lon="15.415131">
        <ele>748.011795</ele>
        <time>2024-07-02T14:58:02.991Z</time>
      </trkpt>
      <trkpt lat="47.168803" lon="15.415586">
        <ele>744.076788</ele>
        <time>2024-07-02T14:58:10.134Z</time>
      </trkpt>
      <trkpt lat="47.168872" lon="15.416345">
        <ele>738.175642</ele>
        <time>2024-07-02T14:58:17.127Z</time>
      </trkpt>
      <trkpt lat="47.168936" lon="15.416751">
        <ele>737.277724</ele>
        <time>2024-07-02T14:58:21.065Z</time>
      </trkpt>
      <trkpt lat="47.168985" lon="15.416899">
        <ele>736.923062</ele>
        <time>2024-07-02T14:58:22.729Z</time>
      </trkpt>
      <trkpt lat="47.168895" lon="15.417173">
        <ele>736.267449</ele>
        <time>2024-07-02T14:58:25.410Z</time>
      </trkpt>
      <trkpt lat="47.168854" lon="15.417299">
        <ele>735.966494</ele>
        <time>2024-07-02T14:58:26.706Z</time>
      </trkpt>
      <trkpt lat="47.168812" lon="15.417375">
        <ele>735.755481</ele>
        <time>2024-07-02T14:58:27.690Z</time>
      </trkpt>
      <trkpt lat="47.168755" lon="15.417412">
        <ele>735.558036</ele>
        <time>2024-07-02T14:58:28.573Z</time>
      </trkpt>
      <trkpt lat="47.168568" lon="15.417455">
        <ele>734.958222</ele>
        <time>2024-07-02T14:58:31.274Z</time>
      </trkpt>
      <trkpt lat="47.168453" lon="15.417523">
        <ele>734.565434</ele>
        <time>2024-07-02T14:58:33.397Z</time>
      </trkpt>
      <trkpt lat="47.168367" lon="15.417635">
        <ele>734.201422</ele>
        <time>2024-07-02T14:58:35.270Z</time>
      </trkpt>
      <trkpt lat="47.168312" lon="15.417765">
        <ele>733.871533</ele>
        <time>2024-07-02T14:58:36.935Z</time>
      </trkpt>
      <trkpt lat="47.168329" lon="15.418136">
        <ele>733.070405</ele>
        <time>2024-07-02T14:58:45.366Z</time>
      </trkpt>
      <trkpt lat="47.168413" lon="15.418364">
        <ele>732.511690</ele>
        <time>2024-07-02T14:58:52.182Z</time>
      </trkpt>
      <trkpt lat="47.168474" lon="15.418463">
        <ele>732.723308</ele>
        <time>2024-07-02T14:58:55.451Z</time>
      </trkpt>
      <trkpt lat="47.168554" lon="15.418568">
        <ele>732.984563</ele>
        <time>2024-07-02T14:58:58.629Z</time>
      </trkpt>
      <trkpt lat="47.169101" lon="15.419022">
        <ele>734.514969</ele>
        <time>2024-07-02T14:59:17.909Z</time>
      </trkpt>
      <trkpt lat="47.169238" lon="15.419218">
        <ele>734.980649</ele>
        <time>2024-07-02T14:59:22.787Z</time>
      </trkpt>
      <trkpt lat="47.169466" lon="15.419759">
        <ele>736.035068</ele>
        <time>2024-07-02T14:59:38.331Z</time>
      </trkpt>
      <trkpt lat="47.169895" lon="15.420433">
        <ele>737.666701</ele>
        <time>2024-07-02T14:59:59.986Z</time>
      </trkpt>
      <trkpt lat="47.169941" lon="15.420548">
        <ele>737.921150</ele>
        <time>2024-07-02T15:00:04.165Z</time>
      </trkpt>
      <trkpt lat="47.170020" lon="15.421218">
        <ele>739.217907</ele>
        <time>2024-07-02T15:00:21.122Z</time>
      </trkpt>
      <trkpt lat="47.169984" lon="15.421611">
        <ele>739.974125</ele>
        <time>2024-07-02T15:00:31.160Z</time>
      </trkpt>
      <trkpt lat="47.169876" lon="15.422456">
        <ele>741.613762</ele>
        <time>2024-07-02T15:00:46.261Z</time>
      </trkpt>
      <trkpt lat="47.169861" lon="15.422711">
        <ele>742.119366</ele>
        <time>2024-07-02T15:00:51.897Z</time>
      </trkpt>
      <trkpt lat="47.170007" lon="15.423611">
        <ele>744.068181</ele>
        <time>2024-07-02T15:01:16.956Z</time>
      </trkpt>
      <trkpt lat="47.170095" lon="15.423785">
        <ele>744.524952</ele>
        <time>2024-07-02T15:01:22.951Z</time>
      </trkpt>
      <trkpt lat="47.170220" lon="15.423826">
        <ele>744.921734</ele>
        <time>2024-07-02T15:01:27.820Z</time>
      </trkpt>
      <trkpt lat="47.170895" lon="15.423793">
        <ele>747.014151</ele>
        <time>2024-07-02T15:01:50.861Z</time>
      </trkpt>
      <trkpt lat="47.171074" lon="15.423859">
        <ele>747.631708</ele>
        <time>2024-07-02T15:01:56.895Z</time>
      </trkpt>
      <trkpt lat="47.171223" lon="15.423979">
        <ele>748.463020</ele>
        <time>2024-07-02T15:02:02.507Z</time>
      </trkpt>
      <trkpt lat="47.171741" lon="15.424179">
        <ele>751.083878</ele>
        <time>2024-07-02T15:02:22.981Z</time>
      </trkpt>
      <trkpt lat="47.172433" lon="15.424248">
        <ele>754.478163</ele>
        <time>2024-07-02T15:02:55.083Z</time>
      </trkpt>
      <trkpt lat="47.172616" lon="15.424263">
        <ele>755.375119</ele>
        <time>2024-07-02T15:03:04.767Z</time>
      </trkpt>
      <trkpt lat="47.172851" lon="15.424336">
        <ele>756.693327</ele>
        <time>2024-07-02T15:03:18.152Z</time>
      </trkpt>
      <trkpt lat="47.173001" lon="15.424439">
        <ele>757.982445</ele>
        <time>2024-07-02T15:03:27.838Z</time>
      </trkpt>
      <trkpt lat="47.173339" lon="15.425095">
        <ele>762.339997</ele>
        <time>2024-07-02T15:04:01.828Z</time>
      </trkpt>
      <trkpt lat="47.173582" lon="15.426289">
        <ele>768.937971</ele>
        <time>2024-07-02T15:04:52.897Z</time>
      </trkpt>
      <trkpt lat="47.173593" lon="15.426440">
        <ele>769.741908</ele>
        <time>2024-07-02T15:04:59.261Z</time>
      </trkpt>
      <trkpt lat="47.173521" lon="15.426989">
        <ele>773.144842</ele>
        <time>2024-07-02T15:05:21.706Z</time>
      </trkpt>
      <trkpt lat="47.173540" lon="15.427149">
        <ele>774.164346</ele>
        <time>2024-07-02T15:05:27.856Z</time>
      </trkpt>
      <trkpt lat="47.173484" lon="15.427818">
        <ele>778.395273</ele>
        <time>2024-07-02T15:05:58.053Z</time>
      </trkpt>
      <trkpt lat="47.173494" lon="15.428198">
        <ele>780.782263</ele>
        <time>2024-07-02T15:06:16.216Z</time>
      </trkpt>
      <trkpt lat="47.173460" lon="15.428617">
        <ele>783.430935</ele>
        <time>2024-07-02T15:06:36.512Z</time>
      </trkpt>
      <trkpt lat="47.173481" lon="15.429170">
        <ele>786.907446</ele>
        <time>2024-07-02T15:07:03.262Z</time>
      </trkpt>
      <trkpt lat="47.173449" lon="15.429433">
        <ele>789.083738</ele>
        <time>2024-07-02T15:07:16.402Z</time>
      </trkpt>
      <trkpt lat="47.173317" lon="15.429959">
        <ele>793.661276</ele>
        <time>2024-07-02T15:07:46.195Z</time>
      </trkpt>
      <trkpt lat="47.173150" lon="15.430428">
        <ele>797.983687</ele>
        <time>2024-07-02T15:08:16.377Z</time>
      </trkpt>
      <trkpt lat="47.173021" lon="15.430628">
        <ele>800.234523</ele>
        <time>2024-07-02T15:08:32.517Z</time>
      </trkpt>
      <trkpt lat="47.172331" lon="15.431389">
        <ele>810.261122</ele>
        <time>2024-07-02T15:09:48.280Z</time>
      </trkpt>
      <trkpt lat="47.171864" lon="15.431863">
        <ele>815.985334</ele>
        <time>2024-07-02T15:10:31.127Z</time>
      </trkpt>
      <trkpt lat="47.171535" lon="15.432106">
        <ele>819.699491</ele>
        <time>2024-07-02T15:10:57.106Z</time>
      </trkpt>
      <trkpt lat="47.171304" lon="15.432186">
        <ele>822.093741</ele>
        <time>2024-07-02T15:11:13.257Z</time>
      </trkpt>
      <trkpt lat="47.170557" lon="15.432246">
        <ele>828.770651</ele>
        <time>2024-07-02T15:12:00.788Z</time>
      </trkpt>
      <trkpt lat="47.170009" lon="15.432120">
        <ele>832.725889</ele>
        <time>2024-07-02T15:12:30.492Z</time>
      </trkpt>
      <trkpt lat="47.169577" lon="15.431964">
        <ele>835.897952</ele>
        <time>2024-07-02T15:12:53.958Z</time>
      </trkpt>
      <trkpt lat="47.169278" lon="15.431858">
        <ele>838.091172</ele>
        <time>2024-07-02T15:13:10.529Z</time>
      </trkpt>
      <trkpt lat="47.169159" lon="15.431877">
        <ele>838.944746</ele>
        <time>2024-07-02T15:13:16.800Z</time>
      </trkpt>
      <trkpt lat="47.168988" lon="15.431981">
        <ele>840.589933</ele>
        <time>2024-07-02T15:13:27.909Z</time>
      </trkpt>
      <trkpt lat="47.168881" lon="15.432174">
        <ele>842.310117</ele>
        <time>2024-07-02T15:13:37.943Z</time>
      </trkpt>
      <trkpt lat="47.168826" lon="15.432386">
        <ele>843.877463</ele>
        <time>2024-07-02T15:13:49.659Z</time>
      </trkpt>
      <trkpt lat="47.168816" lon="15.432545">
        <ele>844.980412</ele>
        <time>2024-07-02T15:13:58.022Z</time>
      </trkpt>
      <trkpt lat="47.168878" lon="15.432797">
        <ele>846.831526</ele>
        <time>2024-07-02T15:14:12.252Z</time>
      </trkpt>
      <trkpt lat="47.168967" lon="15.432998">
        <ele>848.488399</ele>
        <time>2024-07-02T15:14:25.869Z</time>
      </trkpt>
      <trkpt lat="47.169149" lon="15.433108">
        <ele>850.487561</ele>
        <time>2024-07-02T15:14:42.014Z</time>
      </trkpt>
      <trkpt lat="47.169289" lon="15.433279">
        <ele>852.336445</ele>
        <time>2024-07-02T15:14:57.835Z</time>
      </trkpt>
      <trkpt lat="47.169449" lon="15.433282">
        <ele>853.962203</ele>
        <time>2024-07-02T15:15:11.991Z</time>
      </trkpt>
      <trkpt lat="47.170356" lon="15.433939">
        <ele>866.585460</ele>
        <time>2024-07-02T15:16:50.361Z</time>
      </trkpt>
      <trkpt lat="47.170714" lon="15.434363">
        <ele>872.954341</ele>
        <time>2024-07-02T15:17:37.775Z</time>
      </trkpt>
      <trkpt lat="47.171540" lon="15.434837">
        <ele>885.452779</ele>
        <time>2024-07-02T15:19:10.800Z</time>
      </trkpt>
      <trkpt lat="47.172242" lon="15.435436">
        <ele>897.637597</ele>
        <time>2024-07-02T15:20:35.932Z</time>
      </trkpt>
      <trkpt lat="47.172546" lon="15.435695">
        <ele>902.912174</ele>
        <time>2024-07-02T15:21:15.198Z</time>
      </trkpt>
      <trkpt lat="47.172980" lon="15.436128">
        <ele>910.647534</ele>
        <time>2024-07-02T15:22:12.537Z</time>
      </trkpt>
      <trkpt lat="47.173402" lon="15.436720">
        <ele>918.287789</ele>
        <time>2024-07-02T15:23:15.677Z</time>
      </trkpt>
      <trkpt lat="47.173629" lon="15.436968">
        <ele>921.992506</ele>
        <time>2024-07-02T15:23:44.303Z</time>
      </trkpt>
      <trkpt lat="47.174472" lon="15.437646">
        <ele>934.434898</ele>
        <time>2024-07-02T15:25:09.137Z</time>
      </trkpt>
      <trkpt lat="47.174488" lon="15.437701">
        <ele>934.908597</ele>
        <time>2024-07-02T15:25:13.305Z</time>
      </trkpt>
      <trkpt lat="47.174920" lon="15.437785">
        <ele>939.984401</ele>
        <time>2024-07-02T15:25:49.259Z</time>
      </trkpt>
      <trkpt lat="47.175192" lon="15.437633">
        <ele>943.373612</ele>
        <time>2024-07-02T15:26:13.762Z</time>
      </trkpt>
      <trkpt lat="47.175426" lon="15.437560">
        <ele>946.159912</ele>
        <time>2024-07-02T15:26:34.818Z</time>
      </trkpt>
      <trkpt lat="47.175629" lon="15.437525">
        <ele>948.540688</ele>
        <time>2024-07-02T15:26:55.229Z</time>
      </trkpt>
      <trkpt lat="47.176054" lon="15.437566">
        <ele>953.501821</ele>
        <time>2024-07-02T15:27:35.433Z</time>
      </trkpt>
      <trkpt lat="47.176499" lon="15.437712">
        <ele>959.776860</ele>
        <time>2024-07-02T15:28:18.749Z</time>
      </trkpt>
      <trkpt lat="47.177030" lon="15.438041">
        <ele>967.896779</ele>
        <time>2024-07-02T15:29:18.415Z</time>
      </trkpt>
      <trkpt lat="47.178162" lon="15.439000">
        <ele>985.914873</ele>
        <time>2024-07-02T15:31:37.807Z</time>
      </trkpt>
      <trkpt lat="47.178647" lon="15.439346">
        <ele>993.070379</ele>
        <time>2024-07-02T15:32:30.055Z</time>
      </trkpt>
      <trkpt lat="47.179838" lon="15.440095">
        <ele>1009.653668</ele>
        <time>2024-07-02T15:34:31.284Z</time>
      </trkpt>
      <trkpt lat="47.180185" lon="15.440240">
        <ele>1014.013176</ele>
        <time>2024-07-02T15:35:04.797Z</time>
      </trkpt>
      <trkpt lat="47.181325" lon="15.440584">
        <ele>1027.997283</ele>
        <time>2024-07-02T15:36:51.361Z</time>
      </trkpt>
      <trkpt lat="47.181899" lon="15.440888">
        <ele>1035.166271</ele>
        <time>2024-07-02T15:37:46.053Z</time>
      </trkpt>
      <trkpt lat="47.182385" lon="15.441232">
        <ele>1041.503963</ele>
        <time>2024-07-02T15:38:35.861Z</time>
      </trkpt>
      <trkpt lat="47.182969" lon="15.441728">
        <ele>1049.027622</ele>
        <time>2024-07-02T15:39:37.058Z</time>
      </trkpt>
      <trkpt lat="47.183493" lon="15.442280">
        <ele>1055.625897</ele>
        <time>2024-07-02T15:40:32.558Z</time>
      </trkpt>
      <trkpt lat="47.183900" lon="15.442649">
        <ele>1060.520532</ele>
        <time>2024-07-02T15:41:12.091Z</time>
      </trkpt>
      <trkpt lat="47.183931" lon="15.442664">
        <ele>1060.854647</ele>
        <time>2024-07-02T15:41:14.655Z</time>
      </trkpt>
      <trkpt lat="47.184162" lon="15.442927">
        <ele>1063.845107</ele>
        <time>2024-07-02T15:41:37.417Z</time>
      </trkpt>
      <trkpt lat="47.184238" lon="15.443044">
        <ele>1064.937584</ele>
        <time>2024-07-02T15:41:45.511Z</time>
      </trkpt>
      <trkpt lat="47.184308" lon="15.443216">
        <ele>1066.135361</ele>
        <time>2024-07-02T15:41:54.792Z</time>
      </trkpt>
      <trkpt lat="47.184252" lon="15.443586">
        <ele>1068.400100</ele>
        <time>2024-07-02T15:42:13.162Z</time>
      </trkpt>
      <trkpt lat="47.184238" lon="15.444036">
        <ele>1071.091471</ele>
        <time>2024-07-02T15:42:34.790Z</time>
      </trkpt>
      <trkpt lat="47.184143" lon="15.444236">
        <ele>1072.549294</ele>
        <time>2024-07-02T15:42:46.144Z</time>
      </trkpt>
      <trkpt lat="47.184108" lon="15.444407">
        <ele>1073.616271</ele>
        <time>2024-07-02T15:42:55.440Z</time>
      </trkpt>
      <trkpt lat="47.184089" lon="15.444674">
        <ele>1075.220205</ele>
        <time>2024-07-02T15:43:08.848Z</time>
      </trkpt>
      <trkpt lat="47.184105" lon="15.444847">
        <ele>1076.263334</ele>
        <time>2024-07-02T15:43:17.762Z</time>
      </trkpt>
      <trkpt lat="47.184141" lon="15.444907">
        <ele>1076.741513</ele>
        <time>2024-07-02T15:43:22.160Z</time>
      </trkpt>
      <trkpt lat="47.184387" lon="15.445113">
        <ele>1079.229741</ele>
        <time>2024-07-02T15:43:45.012Z</time>
      </trkpt>
      <trkpt lat="47.184517" lon="15.445482">
        <ele>1081.957271</ele>
        <time>2024-07-02T15:44:08.858Z</time>
      </trkpt>
      <trkpt lat="47.184586" lon="15.445607">
        <ele>1083.120525</ele>
        <time>2024-07-02T15:44:17.716Z</time>
      </trkpt>
      <trkpt lat="47.185205" lon="15.447118">
        <ele>1095.864858</ele>
        <time>2024-07-02T15:45:57.685Z</time>
      </trkpt>
      <trkpt lat="47.185207" lon="15.447119">
        <ele>1095.887309</ele>
        <time>2024-07-02T15:45:57.904Z</time>
      </trkpt>
      <trkpt lat="47.185346" lon="15.447207">
        <ele>1097.495637</ele>
        <time>2024-07-02T15:46:11.644Z</time>
      </trkpt>
      <trkpt lat="47.185392" lon="15.447185">
        <ele>1098.009732</ele>
        <time>2024-07-02T15:46:15.744Z</time>
      </trkpt>
      <trkpt lat="47.185540" lon="15.446970">
        <ele>1100.215139</ele>
        <time>2024-07-02T15:46:34.585Z</time>
      </trkpt>
      <trkpt lat="47.185796" lon="15.447025">
        <ele>1102.939751</ele>
        <time>2024-07-02T15:46:59.359Z</time>
      </trkpt>
      <trkpt lat="47.186092" lon="15.447012">
        <ele>1106.058417</ele>
        <time>2024-07-02T15:47:27.237Z</time>
      </trkpt>
      <trkpt lat="47.186359" lon="15.447012">
        <ele>1108.870285</ele>
        <time>2024-07-02T15:47:51.017Z</time>
      </trkpt>
      <trkpt lat="47.186470" lon="15.447099">
        <ele>1110.194764</ele>
        <time>2024-07-02T15:48:00.966Z</time>
      </trkpt>
      <trkpt lat="47.186705" lon="15.447549">
        <ele>1114.256566</ele>
        <time>2024-07-02T15:48:32.420Z</time>
      </trkpt>
      <trkpt lat="47.186784" lon="15.447599">
        <ele>1115.162242</ele>
        <time>2024-07-02T15:48:39.203Z</time>
      </trkpt>
      <trkpt lat="47.186893" lon="15.447772">
        <ele>1116.850685</ele>
        <time>2024-07-02T15:48:52.532Z</time>
      </trkpt>
      <trkpt lat="47.186931" lon="15.447977">
        <ele>1118.371508</ele>
        <time>2024-07-02T15:49:03.091Z</time>
      </trkpt>
      <trkpt lat="47.186881" lon="15.448368">
        <ele>1120.545862</ele>
        <time>2024-07-02T15:49:23.716Z</time>
      </trkpt>
      <trkpt lat="47.186822" lon="15.448601">
        <ele>1121.867435</ele>
        <time>2024-07-02T15:49:35.660Z</time>
      </trkpt>
      <trkpt lat="47.186795" lon="15.448965">
        <ele>1123.813599</ele>
        <time>2024-07-02T15:49:52.629Z</time>
      </trkpt>
      <trkpt lat="47.186991" lon="15.449265">
        <ele>1126.025414</ele>
        <time>2024-07-02T15:50:08.900Z</time>
      </trkpt>
      <trkpt lat="47.187087" lon="15.449604">
        <ele>1127.977372</ele>
        <time>2024-07-02T15:50:22.941Z</time>
      </trkpt>
      <trkpt lat="47.187154" lon="15.450021">
        <ele>1130.254829</ele>
        <time>2024-07-02T15:50:39.336Z</time>
      </trkpt>
      <trkpt lat="47.187387" lon="15.450997">
        <ele>1136.206471</ele>
        <time>2024-07-02T15:51:18.012Z</time>
      </trkpt>
      <trkpt lat="47.187467" lon="15.451187">
        <ele>1137.569164</ele>
        <time>2024-07-02T15:51:27.405Z</time>
      </trkpt>
      <trkpt lat="47.187557" lon="15.451318">
        <ele>1138.704846</ele>
        <time>2024-07-02T15:51:35.290Z</time>
      </trkpt>
      <trkpt lat="47.187760" lon="15.451504">
        <ele>1140.850180</ele>
        <time>2024-07-02T15:51:50.445Z</time>
      </trkpt>
      <trkpt lat="47.187897" lon="15.451555">
        <ele>1142.117939</ele>
        <time>2024-07-02T15:51:59.652Z</time>
      </trkpt>
      <trkpt lat="47.188296" lon="15.451523">
        <ele>1145.702714</ele>
        <time>2024-07-02T15:52:26.728Z</time>
      </trkpt>
      <trkpt lat="47.188306" lon="15.451522">
        <ele>1145.792632</ele>
        <time>2024-07-02T15:52:27.440Z</time>
      </trkpt>
      <trkpt lat="47.188794" lon="15.451361">
        <ele>1150.497378</ele>
        <time>2024-07-02T15:53:03.190Z</time>
      </trkpt>
      <trkpt lat="47.188948" lon="15.451291">
        <ele>1152.157464</ele>
        <time>2024-07-02T15:53:14.971Z</time>
      </trkpt>
      <trkpt lat="47.189512" lon="15.450950">
        <ele>1158.437654</ele>
        <time>2024-07-02T15:53:58.935Z</time>
      </trkpt>
      <trkpt lat="47.189833" lon="15.450652">
        <ele>1162.346781</ele>
        <time>2024-07-02T15:54:25.621Z</time>
      </trkpt>
      <trkpt lat="47.189958" lon="15.450577">
        <ele>1163.737137</ele>
        <time>2024-07-02T15:54:35.066Z</time>
      </trkpt>
      <trkpt lat="47.190364" lon="15.450575">
        <ele>1167.833510</ele>
        <time>2024-07-02T15:55:03.218Z</time>
      </trkpt>
      <trkpt lat="47.190633" lon="15.450605">
        <ele>1170.208773</ele>
        <time>2024-07-02T15:55:22.512Z</time>
      </trkpt>
      <trkpt lat="47.191518" lon="15.450814">
        <ele>1178.100659</ele>
        <time>2024-07-02T15:56:22.351Z</time>
      </trkpt>
      <trkpt lat="47.191884" lon="15.450782">
        <ele>1181.328871</ele>
        <time>2024-07-02T15:56:42.877Z</time>
      </trkpt>
      <trkpt lat="47.192185" lon="15.450846">
        <ele>1183.744075</ele>
        <time>2024-07-02T15:56:59.061Z</time>
      </trkpt>
      <trkpt lat="47.192394" lon="15.450949">
        <ele>1185.077335</ele>
        <time>2024-07-02T15:57:10.936Z</time>
      </trkpt>
      <trkpt lat="47.192457" lon="15.451035">
        <ele>1185.597139</ele>
        <time>2024-07-02T15:57:14.920Z</time>
      </trkpt>
      <trkpt lat="47.192459" lon="15.451160">
        <ele>1186.111100</ele>
        <time>2024-07-02T15:57:18.892Z</time>
      </trkpt>
      <trkpt lat="47.192257" lon="15.451567">
        <ele>1188.182807</ele>
        <time>2024-07-02T15:57:35.872Z</time>
      </trkpt>
      <trkpt lat="47.191934" lon="15.452379">
        <ele>1192.050406</ele>
        <time>2024-07-02T15:58:07.349Z</time>
      </trkpt>
      <trkpt lat="47.191529" lon="15.453172">
        <ele>1196.582214</ele>
        <time>2024-07-02T15:58:37.104Z</time>
      </trkpt>
      <trkpt lat="47.191436" lon="15.453398">
        <ele>1197.905356</ele>
        <time>2024-07-02T15:58:45.627Z</time>
      </trkpt>
      <trkpt lat="47.191263" lon="15.453641">
        <ele>1199.667853</ele>
        <time>2024-07-02T15:58:57.499Z</time>
      </trkpt>
      <trkpt lat="47.191121" lon="15.453967">
        <ele>1201.607059</ele>
        <time>2024-07-02T15:59:12.058Z</time>
      </trkpt>
      <trkpt lat="47.190903" lon="15.454668">
        <ele>1205.467823</ele>
        <time>2024-07-02T15:59:44.918Z</time>
      </trkpt>
      <trkpt lat="47.190585" lon="15.455430">
        <ele>1210.845927</ele>
        <time>2024-07-02T16:00:27.019Z</time>
      </trkpt>
      <trkpt lat="47.190441" lon="15.455654">
        <ele>1212.915878</ele>
        <time>2024-07-02T16:00:41.017Z</time>
      </trkpt>
      <trkpt lat="47.190267" lon="15.456004">
        <ele>1215.827059</ele>
        <time>2024-07-02T16:01:00.186Z</time>
      </trkpt>
      <trkpt lat="47.190169" lon="15.456283">
        <ele>1217.935411</ele>
        <time>2024-07-02T16:01:14.826Z</time>
      </trkpt>
      <trkpt lat="47.190121" lon="15.456526">
        <ele>1219.634211</ele>
        <time>2024-07-02T16:01:26.193Z</time>
      </trkpt>
      <trkpt lat="47.190076" lon="15.457251">
        <ele>1224.521470</ele>
        <time>2024-07-02T16:02:02.078Z</time>
      </trkpt>
      <trkpt lat="47.190166" lon="15.457831">
        <ele>1228.615494</ele>
        <time>2024-07-02T16:02:31.369Z</time>
      </trkpt>
      <trkpt lat="47.190243" lon="15.458148">
        <ele>1230.941150</ele>
        <time>2024-07-02T16:02:47.389Z</time>
      </trkpt>
      <trkpt lat="47.190693" lon="15.459334">
        <ele>1240.325070</ele>
        <time>2024-07-02T16:03:51.764Z</time>
      </trkpt>
      <trkpt lat="47.190779" lon="15.459661">
        <ele>1242.747369</ele>
        <time>2024-07-02T16:04:07.733Z</time>
      </trkpt>
      <trkpt lat="47.190831" lon="15.459824">
        <ele>1243.864767</ele>
        <time>2024-07-02T16:04:16.320Z</time>
      </trkpt>
      <trkpt lat="47.191097" lon="15.460379">
        <ele>1247.622323</ele>
        <time>2024-07-02T16:04:49.422Z</time>
      </trkpt>
      <trkpt lat="47.191294" lon="15.460859">
        <ele>1250.724790</ele>
        <time>2024-07-02T16:05:13.200Z</time>
      </trkpt>
      <trkpt lat="47.191812" lon="15.462679">
        <ele>1260.197987</ele>
        <time>2024-07-02T16:06:24.899Z</time>
      </trkpt>
      <trkpt lat="47.191812" lon="15.462679">
        <ele>1260.197987</ele>
        <time>2024-07-02T16:06:25.096Z</time>
      </trkpt>
      <trkpt lat="47.191812" lon="15.462679">
        <ele>1260.197987</ele>
        <time>2024-07-02T16:06:25.096Z</time>
      </trkpt>
      <trkpt lat="47.191815" lon="15.462677">
        <ele>1260.214172</ele>
        <time>2024-07-02T16:06:25.236Z</time>
      </trkpt>
      <trkpt lat="47.192008" lon="15.463343">
        <ele>1262.631997</ele>
        <time>2024-07-02T16:06:46.302Z</time>
      </trkpt>
      <trkpt lat="47.191815" lon="15.462677">
        <ele>1265.049822</ele>
        <time>2024-07-02T16:07:07.362Z</time>
      </trkpt>
      <trkpt lat="47.191586" lon="15.461843">
        <ele>1268.238445</ele>
        <time>2024-07-02T16:07:33.514Z</time>
      </trkpt>
      <trkpt lat="47.191815" lon="15.462677">
        <ele>1271.699079</ele>
        <time>2024-07-02T16:07:59.683Z</time>
      </trkpt>
      <trkpt lat="47.192008" lon="15.463343">
        <ele>1274.484590</ele>
        <time>2024-07-02T16:08:20.749Z</time>
      </trkpt>
      <trkpt lat="47.192051" lon="15.463235">
        <ele>1274.966156</ele>
        <time>2024-07-02T16:08:24.395Z</time>
      </trkpt>
      <trkpt lat="47.192051" lon="15.463171">
        <ele>1275.212378</ele>
        <time>2024-07-02T16:08:26.261Z</time>
      </trkpt>
      <trkpt lat="47.192030" lon="15.462935">
        <ele>1276.128073</ele>
        <time>2024-07-02T16:08:33.196Z</time>
      </trkpt>
      <trkpt lat="47.192037" lon="15.462934">
        <ele>1276.167890</ele>
        <time>2024-07-02T16:08:33.497Z</time>
      </trkpt>
      <trkpt lat="47.192037" lon="15.462934">
        <ele>1276.167890</ele>
        <time>2024-07-02T16:08:33.497Z</time>
      </trkpt>
      <trkpt lat="47.192037" lon="15.462934">
        <ele>1276.167890</ele>
        <time>2024-07-02T16:08:33.609Z</time>
      </trkpt>
      <trkpt lat="47.192027" lon="15.462771">
        <ele>1276.797537</ele>
        <time>2024-07-02T16:08:41.724Z</time>
      </trkpt>
      <trkpt lat="47.192092" lon="15.461745">
        <ele>1281.995973</ele>
        <time>2024-07-02T16:09:34.961Z</time>
      </trkpt>
      <trkpt lat="47.192119" lon="15.461532">
        <ele>1283.104593</ele>
        <time>2024-07-02T16:09:47.606Z</time>
      </trkpt>
      <trkpt lat="47.192257" lon="15.461060">
        <ele>1285.733633</ele>
        <time>2024-07-02T16:10:14.547Z</time>
      </trkpt>
      <trkpt lat="47.192359" lon="15.459989">
        <ele>1290.462762</ele>
        <time>2024-07-02T16:11:01.124Z</time>
      </trkpt>
      <trkpt lat="47.192425" lon="15.459528">
        <ele>1290.114968</ele>
        <time>2024-07-02T16:11:17.139Z</time>
      </trkpt>
      <trkpt lat="47.192396" lon="15.459219">
        <ele>1289.884690</ele>
        <time>2024-07-02T16:11:26.282Z</time>
      </trkpt>
      <trkpt lat="47.192334" lon="15.458927">
        <ele>1289.658850</ele>
        <time>2024-07-02T16:11:33.843Z</time>
      </trkpt>
      <trkpt lat="47.192185" lon="15.458619">
        <ele>1289.379742</ele>
        <time>2024-07-02T16:11:41.073Z</time>
      </trkpt>
      <trkpt lat="47.192129" lon="15.458403">
        <ele>1289.209073</ele>
        <time>2024-07-02T16:11:45.272Z</time>
      </trkpt>
      <trkpt lat="47.192124" lon="15.458082">
        <ele>1288.972039</ele>
        <time>2024-07-02T16:11:50.568Z</time>
      </trkpt>
      <trkpt lat="47.192151" lon="15.457611">
        <ele>1288.623097</ele>
        <time>2024-07-02T16:11:57.922Z</time>
      </trkpt>
      <trkpt lat="47.192123" lon="15.457109">
        <ele>1285.599824</ele>
        <time>2024-07-02T16:12:05.389Z</time>
      </trkpt>
      <trkpt lat="47.192167" lon="15.456872">
        <ele>1284.078608</ele>
        <time>2024-07-02T16:12:08.974Z</time>
      </trkpt>
      <trkpt lat="47.192345" lon="15.456497">
        <ele>1281.246364</ele>
        <time>2024-07-02T16:12:15.576Z</time>
      </trkpt>
      <trkpt lat="47.192483" lon="15.456132">
        <ele>1278.660153</ele>
        <time>2024-07-02T16:12:21.710Z</time>
      </trkpt>
      <trkpt lat="47.192754" lon="15.455055">
        <ele>1271.728000</ele>
        <time>2024-07-02T16:12:38.629Z</time>
      </trkpt>
      <trkpt lat="47.192863" lon="15.454725">
        <ele>1270.060090</ele>
        <time>2024-07-02T16:12:44.081Z</time>
      </trkpt>
      <trkpt lat="47.193083" lon="15.454300">
        <ele>1267.631474</ele>
        <time>2024-07-02T16:12:52.058Z</time>
      </trkpt>
      <trkpt lat="47.193419" lon="15.453753">
        <ele>1264.279670</ele>
        <time>2024-07-02T16:13:03.293Z</time>
      </trkpt>
      <trkpt lat="47.194214" lon="15.452092">
        <ele>1261.341042</ele>
        <time>2024-07-02T16:13:38.739Z</time>
      </trkpt>
      <trkpt lat="47.194250" lon="15.451938">
        <ele>1261.506693</ele>
        <time>2024-07-02T16:13:42.943Z</time>
      </trkpt>
      <trkpt lat="47.194358" lon="15.451801">
        <ele>1261.720126</ele>
        <time>2024-07-02T16:13:49.492Z</time>
      </trkpt>
      <trkpt lat="47.194615" lon="15.451527">
        <ele>1262.195169</ele>
        <time>2024-07-02T16:14:05.710Z</time>
      </trkpt>
      <trkpt lat="47.194724" lon="15.451206">
        <ele>1262.560170</ele>
        <time>2024-07-02T16:14:19.940Z</time>
      </trkpt>
      <trkpt lat="47.194845" lon="15.450850">
        <ele>1263.291907</ele>
        <time>2024-07-02T16:14:38.644Z</time>
      </trkpt>
      <trkpt lat="47.194893" lon="15.450595">
        <ele>1264.621116</ele>
        <time>2024-07-02T16:14:52.333Z</time>
      </trkpt>
      <trkpt lat="47.194979" lon="15.450313">
        <ele>1266.173842</ele>
        <time>2024-07-02T16:15:08.381Z</time>
      </trkpt>
      <trkpt lat="47.195035" lon="15.450402">
        <ele>1266.783162</ele>
        <time>2024-07-02T16:15:15.052Z</time>
      </trkpt>
      <trkpt lat="47.195112" lon="15.450463">
        <ele>1267.429638</ele>
        <time>2024-07-02T16:15:22.338Z</time>
      </trkpt>
      <trkpt lat="47.195536" lon="15.450461">
        <ele>1270.564166</ele>
        <time>2024-07-02T16:15:53.935Z</time>
      </trkpt>
      <trkpt lat="47.195762" lon="15.450539">
        <ele>1272.280249</ele>
        <time>2024-07-02T16:16:10.320Z</time>
      </trkpt>
      <trkpt lat="47.195946" lon="15.450641">
        <ele>1273.733809</ele>
        <time>2024-07-02T16:16:24.106Z</time>
      </trkpt>
      <trkpt lat="47.196111" lon="15.450682">
        <ele>1274.970872</ele>
        <time>2024-07-02T16:16:35.361Z</time>
      </trkpt>
      <trkpt lat="47.196424" lon="15.450692">
        <ele>1275.886030</ele>
        <time>2024-07-02T16:16:53.987Z</time>
      </trkpt>
      <trkpt lat="47.196445" lon="15.450693">
        <ele>1275.844912</ele>
        <time>2024-07-02T16:16:55.231Z</time>
      </trkpt>
      <trkpt lat="47.196445" lon="15.450693">
        <ele>1275.844912</ele>
        <time>2024-07-02T16:16:55.231Z</time>
      </trkpt>
      <trkpt lat="47.196512" lon="15.450714">
        <ele>1275.710854</ele>
        <time>2024-07-02T16:16:59.180Z</time>
      </trkpt>
      <trkpt lat="47.196626" lon="15.450838">
        <ele>1275.433439</ele>
        <time>2024-07-02T16:17:06.379Z</time>
      </trkpt>
      <trkpt lat="47.196746" lon="15.451047">
        <ele>1275.069591</ele>
        <time>2024-07-02T16:17:15.655Z</time>
      </trkpt>
      <trkpt lat="47.196904" lon="15.451389">
        <ele>1274.519664</ele>
        <time>2024-07-02T16:17:26.241Z</time>
      </trkpt>
      <trkpt lat="47.197729" lon="15.452927">
        <ele>1266.846355</ele>
        <time>2024-07-02T16:17:56.810Z</time>
      </trkpt>
      <trkpt lat="47.198381" lon="15.453816">
        <ele>1253.274273</ele>
        <time>2024-07-02T16:18:14.866Z</time>
      </trkpt>
      <trkpt lat="47.198381" lon="15.453816">
        <ele>1253.274273</ele>
        <time>2024-07-02T16:18:15.285Z</time>
      </trkpt>
      <trkpt lat="47.198381" lon="15.453816">
        <ele>1253.274273</ele>
        <time>2024-07-02T16:18:15.285Z</time>
      </trkpt>
      <trkpt lat="47.198381" lon="15.453815">
        <ele>1253.263897</ele>
        <time>2024-07-02T16:18:15.313Z</time>
      </trkpt>
      <trkpt lat="47.198746" lon="15.454180">
        <ele>1246.525499</ele>
        <time>2024-07-02T16:18:34.479Z</time>
      </trkpt>
      <trkpt lat="47.198532" lon="15.453150">
        <ele>1228.685988</ele>
        <time>2024-07-02T16:19:06.474Z</time>
      </trkpt>
      <trkpt lat="47.198489" lon="15.452614">
        <ele>1219.294751</ele>
        <time>2024-07-02T16:19:22.657Z</time>
      </trkpt>
      <trkpt lat="47.198768" lon="15.452785">
        <ele>1211.555136</ele>
        <time>2024-07-02T16:19:35.940Z</time>
      </trkpt>
      <trkpt lat="47.199025" lon="15.453022">
        <ele>1203.788477</ele>
        <time>2024-07-02T16:19:49.307Z</time>
      </trkpt>
      <trkpt lat="47.199024" lon="15.453037">
        <ele>1203.526224</ele>
        <time>2024-07-02T16:19:49.759Z</time>
      </trkpt>
      <trkpt lat="47.199024" lon="15.453037">
        <ele>1203.526224</ele>
        <time>2024-07-02T16:19:49.759Z</time>
      </trkpt>
      <trkpt lat="47.199024" lon="15.453037">
        <ele>1203.526224</ele>
        <time>2024-07-02T16:19:49.856Z</time>
      </trkpt>
      <trkpt lat="47.199647" lon="15.453394">
        <ele>1185.571153</ele>
        <time>2024-07-02T16:20:02.894Z</time>
      </trkpt>
      <trkpt lat="47.199842" lon="15.453465">
        <ele>1180.089728</ele>
        <time>2024-07-02T16:20:12.614Z</time>
      </trkpt>
      <trkpt lat="47.200385" lon="15.453901">
        <ele>1163.211174</ele>
        <time>2024-07-02T16:20:42.249Z</time>
      </trkpt>
      <trkpt lat="47.200737" lon="15.454137">
        <ele>1152.656431</ele>
        <time>2024-07-02T16:21:00.821Z</time>
      </trkpt>
      <trkpt lat="47.201080" lon="15.454322">
        <ele>1142.906181</ele>
        <time>2024-07-02T16:21:18.456Z</time>
      </trkpt>
      <trkpt lat="47.201231" lon="15.454521">
        <ele>1137.539107</ele>
        <time>2024-07-02T16:21:28.224Z</time>
      </trkpt>
      <trkpt lat="47.201399" lon="15.454816">
        <ele>1130.613944</ele>
        <time>2024-07-02T16:21:40.698Z</time>
      </trkpt>
      <trkpt lat="47.201921" lon="15.455245">
        <ele>1114.782700</ele>
        <time>2024-07-02T16:22:09.422Z</time>
      </trkpt>
      <trkpt lat="47.202353" lon="15.455441">
        <ele>1102.812304</ele>
        <time>2024-07-02T16:22:31.127Z</time>
      </trkpt>
      <trkpt lat="47.202606" lon="15.455327">
        <ele>1097.492580</ele>
        <time>2024-07-02T16:22:36.246Z</time>
      </trkpt>
      <trkpt lat="47.202711" lon="15.455234">
        <ele>1095.074441</ele>
        <time>2024-07-02T16:22:38.616Z</time>
      </trkpt>
      <trkpt lat="47.202828" lon="15.455322">
        <ele>1092.481754</ele>
        <time>2024-07-02T16:22:41.163Z</time>
      </trkpt>
      <trkpt lat="47.202849" lon="15.455321">
        <ele>1092.067152</ele>
        <time>2024-07-02T16:22:41.576Z</time>
      </trkpt>
      <trkpt lat="47.202992" lon="15.455312">
        <ele>1089.242807</ele>
        <time>2024-07-02T16:22:44.343Z</time>
      </trkpt>
      <trkpt lat="47.203098" lon="15.455254">
        <ele>1087.011294</ele>
        <time>2024-07-02T16:22:46.558Z</time>
      </trkpt>
      <trkpt lat="47.203317" lon="15.455134">
        <ele>1082.400111</ele>
        <time>2024-07-02T16:22:51.076Z</time>
      </trkpt>
      <trkpt lat="47.203358" lon="15.455216">
        <ele>1081.035178</ele>
        <time>2024-07-02T16:22:52.412Z</time>
      </trkpt>
      <trkpt lat="47.203327" lon="15.455508">
        <ele>1077.073028</ele>
        <time>2024-07-02T16:22:54.785Z</time>
      </trkpt>
      <trkpt lat="47.203189" lon="15.455770">
        <ele>1072.628630</ele>
        <time>2024-07-02T16:22:57.461Z</time>
      </trkpt>
      <trkpt lat="47.203116" lon="15.456011">
        <ele>1069.091128</ele>
        <time>2024-07-02T16:22:59.506Z</time>
      </trkpt>
      <trkpt lat="47.203131" lon="15.456207">
        <ele>1066.820896</ele>
        <time>2024-07-02T16:23:01.030Z</time>
      </trkpt>
      <trkpt lat="47.203343" lon="15.456790">
        <ele>1064.774907</ele>
        <time>2024-07-02T16:23:06.320Z</time>
      </trkpt>
      <trkpt lat="47.203415" lon="15.457050">
        <ele>1063.906184</ele>
        <time>2024-07-02T16:23:08.777Z</time>
      </trkpt>
      <trkpt lat="47.203504" lon="15.457144">
        <ele>1063.407310</ele>
        <time>2024-07-02T16:23:10.627Z</time>
      </trkpt>
      <trkpt lat="47.203580" lon="15.457178">
        <ele>1063.045559</ele>
        <time>2024-07-02T16:23:12.844Z</time>
      </trkpt>
      <trkpt lat="47.204058" lon="15.457330">
        <ele>1060.818445</ele>
        <time>2024-07-02T16:23:23.512Z</time>
      </trkpt>
      <trkpt lat="47.204195" lon="15.457467">
        <ele>1060.064153</ele>
        <time>2024-07-02T16:23:26.359Z</time>
      </trkpt>
      <trkpt lat="47.204222" lon="15.457617">
        <ele>1059.584034</ele>
        <time>2024-07-02T16:23:28.057Z</time>
      </trkpt>
      <trkpt lat="47.204124" lon="15.458204">
        <ele>1059.625622</ele>
        <time>2024-07-02T16:23:34.820Z</time>
      </trkpt>
      <trkpt lat="47.204098" lon="15.458659">
        <ele>1060.840236</ele>
        <time>2024-07-02T16:23:41.186Z</time>
      </trkpt>
      <trkpt lat="47.204113" lon="15.458839">
        <ele>1061.322640</ele>
        <time>2024-07-02T16:23:45.205Z</time>
      </trkpt>
      <trkpt lat="47.204163" lon="15.458908">
        <ele>1061.590997</ele>
        <time>2024-07-02T16:23:46.963Z</time>
      </trkpt>
      <trkpt lat="47.204175" lon="15.458958">
        <ele>1061.732056</ele>
        <time>2024-07-02T16:23:48.960Z</time>
      </trkpt>
      <trkpt lat="47.204244" lon="15.459008">
        <ele>1062.033185</ele>
        <time>2024-07-02T16:23:52.029Z</time>
      </trkpt>
      <trkpt lat="47.204526" lon="15.459004">
        <ele>1063.137383</ele>
        <time>2024-07-02T16:24:06.654Z</time>
      </trkpt>
      <trkpt lat="47.204889" lon="15.459067">
        <ele>1064.568524</ele>
        <time>2024-07-02T16:24:30.042Z</time>
      </trkpt>
      <trkpt lat="47.205173" lon="15.459047">
        <ele>1065.681774</ele>
        <time>2024-07-02T16:24:51.180Z</time>
      </trkpt>
      <trkpt lat="47.205275" lon="15.459090">
        <ele>1066.599313</ele>
        <time>2024-07-02T16:25:00.507Z</time>
      </trkpt>
      <trkpt lat="47.205596" lon="15.459403">
        <ele>1070.525635</ele>
        <time>2024-07-02T16:25:31.137Z</time>
      </trkpt>
      <trkpt lat="47.205814" lon="15.459696">
        <ele>1073.535884</ele>
        <time>2024-07-02T16:25:54.400Z</time>
      </trkpt>
      <trkpt lat="47.205928" lon="15.459940">
        <ele>1075.587355</ele>
        <time>2024-07-02T16:26:10.621Z</time>
      </trkpt>
      <trkpt lat="47.205936" lon="15.460010">
        <ele>1076.079098</ele>
        <time>2024-07-02T16:26:13.680Z</time>
      </trkpt>
      <trkpt lat="47.205915" lon="15.460081">
        <ele>1076.615548</ele>
        <time>2024-07-02T16:26:17.196Z</time>
      </trkpt>
      <trkpt lat="47.205827" lon="15.460130">
        <ele>1077.574951</ele>
        <time>2024-07-02T16:26:25.404Z</time>
      </trkpt>
      <trkpt lat="47.205630" lon="15.460263">
        <ele>1079.784998</ele>
        <time>2024-07-02T16:26:43.228Z</time>
      </trkpt>
      <trkpt lat="47.205626" lon="15.460266">
        <ele>1079.830776</ele>
        <time>2024-07-02T16:26:43.560Z</time>
      </trkpt>
      <trkpt lat="47.205567" lon="15.460394">
        <ele>1080.902341</ele>
        <time>2024-07-02T16:26:52.960Z</time>
      </trkpt>
      <trkpt lat="47.205527" lon="15.460581">
        <ele>1082.260499</ele>
        <time>2024-07-02T16:27:06.532Z</time>
      </trkpt>
      <trkpt lat="47.205563" lon="15.461154">
        <ele>1085.925443</ele>
        <time>2024-07-02T16:27:44.453Z</time>
      </trkpt>
      <trkpt lat="47.205596" lon="15.461324">
        <ele>1086.964669</ele>
        <time>2024-07-02T16:27:55.254Z</time>
      </trkpt>
      <trkpt lat="47.205575" lon="15.461415">
        <ele>1087.529571</ele>
        <time>2024-07-02T16:28:01.879Z</time>
      </trkpt>
      <trkpt lat="47.205580" lon="15.461532">
        <ele>1088.218641</ele>
        <time>2024-07-02T16:28:10.805Z</time>
      </trkpt>
      <trkpt lat="47.205519" lon="15.461993">
        <ele>1090.979256</ele>
        <time>2024-07-02T16:28:39.772Z</time>
      </trkpt>
      <trkpt lat="47.205548" lon="15.462160">
        <ele>1091.992419</ele>
        <time>2024-07-02T16:28:50.173Z</time>
      </trkpt>
      <trkpt lat="47.205592" lon="15.462309">
        <ele>1092.947380</ele>
        <time>2024-07-02T16:28:58.468Z</time>
      </trkpt>
      <trkpt lat="47.205563" lon="15.462939">
        <ele>1096.658925</ele>
        <time>2024-07-02T16:29:25.389Z</time>
      </trkpt>
      <trkpt lat="47.205375" lon="15.463278">
        <ele>1099.231116</ele>
        <time>2024-07-02T16:29:39.075Z</time>
      </trkpt>
      <trkpt lat="47.205377" lon="15.463461">
        <ele>1100.184857</ele>
        <time>2024-07-02T16:29:44.167Z</time>
      </trkpt>
      <trkpt lat="47.205481" lon="15.463585">
        <ele>1101.114862</ele>
        <time>2024-07-02T16:29:49.525Z</time>
      </trkpt>
      <trkpt lat="47.205830" lon="15.463596">
        <ele>1103.540518</ele>
        <time>2024-07-02T16:30:05.872Z</time>
      </trkpt>
      <trkpt lat="47.206577" lon="15.463821">
        <ele>1108.838765</ele>
        <time>2024-07-02T16:30:59.925Z</time>
      </trkpt>
      <trkpt lat="47.206804" lon="15.464022">
        <ele>1110.679518</ele>
        <time>2024-07-02T16:31:20.057Z</time>
      </trkpt>
      <trkpt lat="47.206969" lon="15.464275">
        <ele>1112.419745</ele>
        <time>2024-07-02T16:31:39.152Z</time>
      </trkpt>
      <trkpt lat="47.207068" lon="15.464664">
        <ele>1115.487831</ele>
        <time>2024-07-02T16:32:03.257Z</time>
      </trkpt>
      <trkpt lat="47.207056" lon="15.465231">
        <ele>1119.677639</ele>
        <time>2024-07-02T16:32:38.810Z</time>
      </trkpt>
      <trkpt lat="47.207060" lon="15.465307">
        <ele>1120.240646</ele>
        <time>2024-07-02T16:32:43.501Z</time>
      </trkpt>
      <trkpt lat="47.207082" lon="15.465662">
        <ele>1122.873509</ele>
        <time>2024-07-02T16:33:06.930Z</time>
      </trkpt>
      <trkpt lat="47.207078" lon="15.466283">
        <ele>1127.460326</ele>
        <time>2024-07-02T16:33:48.270Z</time>
      </trkpt>
      <trkpt lat="47.206953" lon="15.467093">
        <ele>1132.058969</ele>
        <time>2024-07-02T16:34:34.464Z</time>
      </trkpt>
      <trkpt lat="47.206823" lon="15.467655">
        <ele>1132.813070</ele>
        <time>2024-07-02T16:34:57.412Z</time>
      </trkpt>
      <trkpt lat="47.206779" lon="15.468265">
        <ele>1133.592251</ele>
        <time>2024-07-02T16:35:14.073Z</time>
      </trkpt>
      <trkpt lat="47.206788" lon="15.468628">
        <ele>1134.053643</ele>
        <time>2024-07-02T16:35:21.665Z</time>
      </trkpt>
      <trkpt lat="47.206884" lon="15.469256">
        <ele>1134.871278</ele>
        <time>2024-07-02T16:35:33.443Z</time>
      </trkpt>
      <trkpt lat="47.206995" lon="15.469596">
        <ele>1134.611517</ele>
        <time>2024-07-02T16:35:39.854Z</time>
      </trkpt>
      <trkpt lat="47.207299" lon="15.470999">
        <ele>1130.899250</ele>
        <time>2024-07-02T16:36:03.996Z</time>
      </trkpt>
      <trkpt lat="47.207418" lon="15.471321">
        <ele>1129.975212</ele>
        <time>2024-07-02T16:36:10.122Z</time>
      </trkpt>
      <trkpt lat="47.207454" lon="15.473343">
        <ele>1128.312812</ele>
        <time>2024-07-02T16:36:47.964Z</time>
      </trkpt>
      <trkpt lat="47.207413" lon="15.474326">
        <ele>1128.231816</ele>
        <time>2024-07-02T16:37:14.193Z</time>
      </trkpt>
      <trkpt lat="47.207407" lon="15.474469">
        <ele>1128.220033</ele>
        <time>2024-07-02T16:37:18.507Z</time>
      </trkpt>
      <trkpt lat="47.207274" lon="15.475162">
        <ele>1128.707192</ele>
        <time>2024-07-02T16:37:42.160Z</time>
      </trkpt>
      <trkpt lat="47.207047" lon="15.475824">
        <ele>1129.310598</ele>
        <time>2024-07-02T16:38:06.256Z</time>
      </trkpt>
      <trkpt lat="47.206719" lon="15.476613">
        <ele>1130.063284</ele>
        <time>2024-07-02T16:38:26.836Z</time>
      </trkpt>
      <trkpt lat="47.206644" lon="15.477104">
        <ele>1130.201523</ele>
        <time>2024-07-02T16:38:36.389Z</time>
      </trkpt>
      <trkpt lat="47.206468" lon="15.477929">
        <ele>1129.128876</ele>
        <time>2024-07-02T16:38:52.904Z</time>
      </trkpt>
      <trkpt lat="47.206399" lon="15.478447">
        <ele>1128.474083</ele>
        <time>2024-07-02T16:39:02.591Z</time>
      </trkpt>
      <trkpt lat="47.206343" lon="15.478550">
        <ele>1128.310437</ele>
        <time>2024-07-02T16:39:05.155Z</time>
      </trkpt>
      <trkpt lat="47.206320" lon="15.478830">
        <ele>1127.960578</ele>
        <time>2024-07-02T16:39:09.706Z</time>
      </trkpt>
      <trkpt lat="47.206208" lon="15.479346">
        <ele>1127.288624</ele>
        <time>2024-07-02T16:39:19.359Z</time>
      </trkpt>
      <trkpt lat="47.206116" lon="15.479504">
        <ele>1127.194018</ele>
        <time>2024-07-02T16:39:24.126Z</time>
      </trkpt>
      <trkpt lat="47.205886" lon="15.479712">
        <ele>1128.292283</ele>
        <time>2024-07-02T16:39:31.861Z</time>
      </trkpt>
      <trkpt lat="47.205730" lon="15.479986">
        <ele>1129.280415</ele>
        <time>2024-07-02T16:39:40.586Z</time>
      </trkpt>
      <trkpt lat="47.205411" lon="15.480349">
        <ele>1130.920892</ele>
        <time>2024-07-02T16:39:59.127Z</time>
      </trkpt>
      <trkpt lat="47.205153" lon="15.480574">
        <ele>1132.140979</ele>
        <time>2024-07-02T16:40:20.034Z</time>
      </trkpt>
      <trkpt lat="47.204583" lon="15.481204">
        <ele>1135.768498</ele>
        <time>2024-07-02T16:41:12.121Z</time>
      </trkpt>
      <trkpt lat="47.204377" lon="15.481493">
        <ele>1138.238134</ele>
        <time>2024-07-02T16:41:32.017Z</time>
      </trkpt>
      <trkpt lat="47.203875" lon="15.482368">
        <ele>1144.990346</ele>
        <time>2024-07-02T16:42:31.458Z</time>
      </trkpt>
      <trkpt lat="47.203663" lon="15.482547">
        <ele>1147.111322</ele>
        <time>2024-07-02T16:42:51.542Z</time>
      </trkpt>
      <trkpt lat="47.203320" lon="15.482799">
        <ele>1150.413859</ele>
        <time>2024-07-02T16:43:20.339Z</time>
      </trkpt>
      <trkpt lat="47.203219" lon="15.482889">
        <ele>1151.380643</ele>
        <time>2024-07-02T16:43:27.558Z</time>
      </trkpt>
      <trkpt lat="47.203219" lon="15.482722">
        <ele>1152.309701</ele>
        <time>2024-07-02T16:43:37.550Z</time>
      </trkpt>
      <trkpt lat="47.203178" lon="15.482530">
        <ele>1153.429358</ele>
        <time>2024-07-02T16:43:47.902Z</time>
      </trkpt>
      <trkpt lat="47.202928" lon="15.482238">
        <ele>1156.042697</ele>
        <time>2024-07-02T16:44:11.946Z</time>
      </trkpt>
      <trkpt lat="47.202435" lon="15.481545">
        <ele>1161.624834</ele>
        <time>2024-07-02T16:45:01.336Z</time>
      </trkpt>
      <trkpt lat="47.202116" lon="15.481150">
        <ele>1164.979629</ele>
        <time>2024-07-02T16:45:31.601Z</time>
      </trkpt>
      <trkpt lat="47.201292" lon="15.480636">
        <ele>1170.884474</ele>
        <time>2024-07-02T16:46:28.320Z</time>
      </trkpt>
      <trkpt lat="47.201127" lon="15.480562">
        <ele>1172.022559</ele>
        <time>2024-07-02T16:46:39.642Z</time>
      </trkpt>
      <trkpt lat="47.200979" lon="15.480562">
        <ele>1172.999059</ele>
        <time>2024-07-02T16:46:48.923Z</time>
      </trkpt>
      <trkpt lat="47.200651" lon="15.480639">
        <ele>1175.190551</ele>
        <time>2024-07-02T16:47:10.160Z</time>
      </trkpt>
      <trkpt lat="47.200415" lon="15.480502">
        <ele>1176.907947</ele>
        <time>2024-07-02T16:47:25.981Z</time>
      </trkpt>
      <trkpt lat="47.200193" lon="15.480444">
        <ele>1178.643696</ele>
        <time>2024-07-02T16:47:39.721Z</time>
      </trkpt>
      <trkpt lat="47.200171" lon="15.480374">
        <ele>1179.047109</ele>
        <time>2024-07-02T16:47:43.030Z</time>
      </trkpt>
      <trkpt lat="47.200182" lon="15.480321">
        <ele>1179.336974</ele>
        <time>2024-07-02T16:47:45.828Z</time>
      </trkpt>
      <trkpt lat="47.200269" lon="15.480314">
        <ele>1180.007730</ele>
        <time>2024-07-02T16:47:51.558Z</time>
      </trkpt>
      <trkpt lat="47.200402" lon="15.480358">
        <ele>1181.057156</ele>
        <time>2024-07-02T16:47:59.785Z</time>
      </trkpt>
      <trkpt lat="47.200603" lon="15.480344">
        <ele>1182.606254</ele>
        <time>2024-07-02T16:48:13.093Z</time>
      </trkpt>
      <trkpt lat="47.200950" lon="15.480170">
        <ele>1185.428358</ele>
        <time>2024-07-02T16:48:37.782Z</time>
      </trkpt>
      <trkpt lat="47.201115" lon="15.480134">
        <ele>1186.712465</ele>
        <time>2024-07-02T16:48:49.507Z</time>
      </trkpt>
      <trkpt lat="47.201474" lon="15.480258">
        <ele>1189.551253</ele>
        <time>2024-07-02T16:49:18.524Z</time>
      </trkpt>
      <trkpt lat="47.201693" lon="15.480299">
        <ele>1191.387058</ele>
        <time>2024-07-02T16:49:37.846Z</time>
      </trkpt>
      <trkpt lat="47.202281" lon="15.480215">
        <ele>1196.708923</ele>
        <time>2024-07-02T16:50:27.451Z</time>
      </trkpt>
      <trkpt lat="47.202577" lon="15.480124">
        <ele>1199.432972</ele>
        <time>2024-07-02T16:50:53.060Z</time>
      </trkpt>
      <trkpt lat="47.202838" lon="15.479954">
        <ele>1202.004110</ele>
        <time>2024-07-02T16:51:15.206Z</time>
      </trkpt>
      <trkpt lat="47.203078" lon="15.479663">
        <ele>1204.805260</ele>
        <time>2024-07-02T16:51:35.343Z</time>
      </trkpt>
      <trkpt lat="47.203338" lon="15.479123">
        <ele>1208.843363</ele>
        <time>2024-07-02T16:52:02.274Z</time>
      </trkpt>
      <trkpt lat="47.203710" lon="15.478559">
        <ele>1213.626651</ele>
        <time>2024-07-02T16:52:42.624Z</time>
      </trkpt>
      <trkpt lat="47.203792" lon="15.478496">
        <ele>1214.455125</ele>
        <time>2024-07-02T16:52:50.571Z</time>
      </trkpt>
      <trkpt lat="47.204026" lon="15.478389">
        <ele>1216.649779</ele>
        <time>2024-07-02T16:53:10.545Z</time>
      </trkpt>
      <trkpt lat="47.204164" lon="15.478380">
        <ele>1217.887004</ele>
        <time>2024-07-02T16:53:22.548Z</time>
      </trkpt>
      <trkpt lat="47.204413" lon="15.478409">
        <ele>1220.124171</ele>
        <time>2024-07-02T16:53:42.629Z</time>
      </trkpt>
      <trkpt lat="47.204481" lon="15.478226">
        <ele>1221.393399</ele>
        <time>2024-07-02T16:53:55.037Z</time>
      </trkpt>
      <trkpt lat="47.204524" lon="15.478000">
        <ele>1222.834795</ele>
        <time>2024-07-02T16:54:07.858Z</time>
      </trkpt>
      <trkpt lat="47.204536" lon="15.477743">
        <ele>1224.756263</ele>
        <time>2024-07-02T16:54:22.344Z</time>
      </trkpt>
      <trkpt lat="47.204505" lon="15.477065">
        <ele>1229.824861</ele>
        <time>2024-07-02T16:54:57.134Z</time>
      </trkpt>
      <trkpt lat="47.204555" lon="15.476660">
        <ele>1232.895202</ele>
        <time>2024-07-02T16:55:19.333Z</time>
      </trkpt>
      <trkpt lat="47.204605" lon="15.475649">
        <ele>1240.456132</ele>
        <time>2024-07-02T16:56:26.300Z</time>
      </trkpt>
      <trkpt lat="47.204577" lon="15.474885">
        <ele>1245.759514</ele>
        <time>2024-07-02T16:57:15.305Z</time>
      </trkpt>
      <trkpt lat="47.204724" lon="15.473985">
        <ele>1251.901161</ele>
        <time>2024-07-02T16:58:06.007Z</time>
      </trkpt>
      <trkpt lat="47.204736" lon="15.473740">
        <ele>1253.530952</ele>
        <time>2024-07-02T16:58:17.300Z</time>
      </trkpt>
      <trkpt lat="47.204703" lon="15.473467">
        <ele>1255.370752</ele>
        <time>2024-07-02T16:58:30.591Z</time>
      </trkpt>
      <trkpt lat="47.204633" lon="15.473120">
        <ele>1257.772448</ele>
        <time>2024-07-02T16:58:48.585Z</time>
      </trkpt>
      <trkpt lat="47.204584" lon="15.472643">
        <ele>1260.827059</ele>
        <time>2024-07-02T16:59:13.264Z</time>
      </trkpt>
      <trkpt lat="47.204541" lon="15.472676">
        <ele>1261.223471</ele>
        <time>2024-07-02T16:59:16.548Z</time>
      </trkpt>
      <trkpt lat="47.204524" lon="15.472737">
        <ele>1261.589637</ele>
        <time>2024-07-02T16:59:19.461Z</time>
      </trkpt>
      <trkpt lat="47.204535" lon="15.472879">
        <ele>1262.383361</ele>
        <time>2024-07-02T16:59:26.027Z</time>
      </trkpt>
      <trkpt lat="47.204517" lon="15.473059">
        <ele>1263.393785</ele>
        <time>2024-07-02T16:59:34.435Z</time>
      </trkpt>
      <trkpt lat="47.204348" lon="15.473831">
        <ele>1267.898266</ele>
        <time>2024-07-02T17:00:14.772Z</time>
      </trkpt>
      <trkpt lat="47.203724" lon="15.475653">
        <ele>1277.302418</ele>
        <time>2024-07-02T17:01:30.675Z</time>
      </trkpt>
      <trkpt lat="47.203722" lon="15.475657">
        <ele>1277.318056</ele>
        <time>2024-07-02T17:01:30.813Z</time>
      </trkpt>
      <trkpt lat="47.203517" lon="15.476125">
        <ele>1279.071314</ele>
        <time>2024-07-02T17:01:50.474Z</time>
      </trkpt>
      <trkpt lat="47.203324" lon="15.476705">
        <ele>1281.104779</ele>
        <time>2024-07-02T17:02:10.292Z</time>
      </trkpt>
      <trkpt lat="47.203517" lon="15.476125">
        <ele>1283.091110</ele>
        <time>2024-07-02T17:02:24.986Z</time>
      </trkpt>
      <trkpt lat="47.203722" lon="15.475657">
        <ele>1281.353141</ele>
        <time>2024-07-02T17:02:34.634Z</time>
      </trkpt>
      <trkpt lat="47.203517" lon="15.476125">
        <ele>1279.615172</ele>
        <time>2024-07-02T17:02:40.887Z</time>
      </trkpt>
      <trkpt lat="47.203324" lon="15.476705">
        <ele>1277.599439</ele>
        <time>2024-07-02T17:02:47.259Z</time>
      </trkpt>
      <trkpt lat="47.203178" lon="15.477237">
        <ele>1275.808638</ele>
        <time>2024-07-02T17:02:52.685Z</time>
      </trkpt>
      <trkpt lat="47.203007" lon="15.477493">
        <ele>1274.550354</ele>
        <time>2024-07-02T17:02:56.075Z</time>
      </trkpt>
      <trkpt lat="47.202949" lon="15.477574">
        <ele>1273.873573</ele>
        <time>2024-07-02T17:02:57.152Z</time>
      </trkpt>
      <trkpt lat="47.202663" lon="15.478026">
        <ele>1270.321395</ele>
        <time>2024-07-02T17:03:02.828Z</time>
      </trkpt>
      <trkpt lat="47.202194" lon="15.478475">
        <ele>1265.585526</ele>
        <time>2024-07-02T17:03:10.588Z</time>
      </trkpt>
      <trkpt lat="47.201390" lon="15.478859">
        <ele>1258.773085</ele>
        <time>2024-07-02T17:03:22.394Z</time>
      </trkpt>
      <trkpt lat="47.201386" lon="15.478859">
        <ele>1258.748924</ele>
        <time>2024-07-02T17:03:22.448Z</time>
      </trkpt>
      <trkpt lat="47.201390" lon="15.478859">
        <ele>1258.724762</ele>
        <time>2024-07-02T17:03:22.507Z</time>
      </trkpt>
      <trkpt lat="47.202194" lon="15.478475">
        <ele>1253.619012</ele>
        <time>2024-07-02T17:03:35.094Z</time>
      </trkpt>
      <trkpt lat="47.201390" lon="15.478859">
        <ele>1248.424001</ele>
        <time>2024-07-02T17:03:47.917Z</time>
      </trkpt>
      <trkpt lat="47.201238" lon="15.478880">
        <ele>1247.171049</ele>
        <time>2024-07-02T17:03:50.162Z</time>
      </trkpt>
      <trkpt lat="47.201009" lon="15.478861">
        <ele>1245.288656</ele>
        <time>2024-07-02T17:03:53.425Z</time>
      </trkpt>
      <trkpt lat="47.200742" lon="15.478777">
        <ele>1243.047879</ele>
        <time>2024-07-02T17:03:57.157Z</time>
      </trkpt>
      <trkpt lat="47.200233" lon="15.478552">
        <ele>1238.686161</ele>
        <time>2024-07-02T17:04:04.316Z</time>
      </trkpt>
      <trkpt lat="47.199863" lon="15.478305">
        <ele>1235.351803</ele>
        <time>2024-07-02T17:04:09.904Z</time>
      </trkpt>
      <trkpt lat="47.199647" lon="15.478096">
        <ele>1233.719178</ele>
        <time>2024-07-02T17:04:13.591Z</time>
      </trkpt>
      <trkpt lat="47.199422" lon="15.477983">
        <ele>1233.006353</ele>
        <time>2024-07-02T17:04:16.999Z</time>
      </trkpt>
      <trkpt lat="47.199260" lon="15.477824">
        <ele>1232.422520</ele>
        <time>2024-07-02T17:04:20.012Z</time>
      </trkpt>
      <trkpt lat="47.199155" lon="15.477727">
        <ele>1232.050813</ele>
        <time>2024-07-02T17:04:21.831Z</time>
      </trkpt>
      <trkpt lat="47.198984" lon="15.477332">
        <ele>1231.096644</ele>
        <time>2024-07-02T17:04:27.053Z</time>
      </trkpt>
      <trkpt lat="47.198064" lon="15.475644">
        <ele>1229.516603</ele>
        <time>2024-07-02T17:04:59.226Z</time>
      </trkpt>
      <trkpt lat="47.197793" lon="15.475321">
        <ele>1230.011733</ele>
        <time>2024-07-02T17:05:10.718Z</time>
      </trkpt>
      <trkpt lat="47.197597" lon="15.475011">
        <ele>1230.420251</ele>
        <time>2024-07-02T17:05:19.918Z</time>
      </trkpt>
      <trkpt lat="47.197264" lon="15.474580">
        <ele>1231.049885</ele>
        <time>2024-07-02T17:05:34.621Z</time>
      </trkpt>
      <trkpt lat="47.197155" lon="15.474453">
        <ele>1231.233804</ele>
        <time>2024-07-02T17:05:38.770Z</time>
      </trkpt>
      <trkpt lat="47.196877" lon="15.474122">
        <ele>1231.661857</ele>
        <time>2024-07-02T17:05:50.186Z</time>
      </trkpt>
      <trkpt lat="47.196468" lon="15.473604">
        <ele>1232.307790</ele>
        <time>2024-07-02T17:06:11.091Z</time>
      </trkpt>
      <trkpt lat="47.195727" lon="15.472539">
        <ele>1233.218191</ele>
        <time>2024-07-02T17:06:46.877Z</time>
      </trkpt>
      <trkpt lat="47.195532" lon="15.472325">
        <ele>1233.097897</ele>
        <time>2024-07-02T17:06:55.861Z</time>
      </trkpt>
      <trkpt lat="47.195102" lon="15.471816">
        <ele>1232.824997</ele>
        <time>2024-07-02T17:07:14.080Z</time>
      </trkpt>
      <trkpt lat="47.194959" lon="15.471644">
        <ele>1232.733664</ele>
        <time>2024-07-02T17:07:19.468Z</time>
      </trkpt>
      <trkpt lat="47.194366" lon="15.470759">
        <ele>1231.820412</ele>
        <time>2024-07-02T17:07:42.918Z</time>
      </trkpt>
      <trkpt lat="47.194084" lon="15.470409">
        <ele>1230.808655</ele>
        <time>2024-07-02T17:07:52.948Z</time>
      </trkpt>
      <trkpt lat="47.193709" lon="15.469882">
        <ele>1229.386539</ele>
        <time>2024-07-02T17:08:07.070Z</time>
      </trkpt>
      <trkpt lat="47.193472" lon="15.469590">
        <ele>1228.538805</ele>
        <time>2024-07-02T17:08:15.269Z</time>
      </trkpt>
      <trkpt lat="47.192372" lon="15.468553">
        <ele>1221.901435</ele>
        <time>2024-07-02T17:08:47.127Z</time>
      </trkpt>
      <trkpt lat="47.192147" lon="15.468250">
        <ele>1220.057466</ele>
        <time>2024-07-02T17:08:54.259Z</time>
      </trkpt>
      <trkpt lat="47.191757" lon="15.467959">
        <ele>1217.413756</ele>
        <time>2024-07-02T17:09:04.099Z</time>
      </trkpt>
      <trkpt lat="47.191614" lon="15.467786">
        <ele>1216.165820</ele>
        <time>2024-07-02T17:09:08.167Z</time>
      </trkpt>
      <trkpt lat="47.191280" lon="15.467282">
        <ele>1212.120856</ele>
        <time>2024-07-02T17:09:18.461Z</time>
      </trkpt>
      <trkpt lat="47.191211" lon="15.467098">
        <ele>1210.913324</ele>
        <time>2024-07-02T17:09:21.534Z</time>
      </trkpt>
      <trkpt lat="47.190756" lon="15.465898">
        <ele>1203.017577</ele>
        <time>2024-07-02T17:09:41.904Z</time>
      </trkpt>
      <trkpt lat="47.190471" lon="15.465038">
        <ele>1200.234000</ele>
        <time>2024-07-02T17:09:57.147Z</time>
      </trkpt>
      <trkpt lat="47.190416" lon="15.464805">
        <ele>1199.805733</ele>
        <time>2024-07-02T17:10:01.259Z</time>
      </trkpt>
      <trkpt lat="47.190361" lon="15.464363">
        <ele>1199.025534</ele>
        <time>2024-07-02T17:10:09.121Z</time>
      </trkpt>
      <trkpt lat="47.190356" lon="15.464034">
        <ele>1198.454151</ele>
        <time>2024-07-02T17:10:15.241Z</time>
      </trkpt>
      <trkpt lat="47.190387" lon="15.463800">
        <ele>1198.040211</ele>
        <time>2024-07-02T17:10:20.114Z</time>
      </trkpt>
      <trkpt lat="47.190386" lon="15.463378">
        <ele>1197.307492</ele>
        <time>2024-07-02T17:10:29.492Z</time>
      </trkpt>
      <trkpt lat="47.190183" lon="15.461988">
        <ele>1198.912830</ele>
        <time>2024-07-02T17:11:12.782Z</time>
      </trkpt>
      <trkpt lat="47.190121" lon="15.461316">
        <ele>1200.164394</ele>
        <time>2024-07-02T17:11:34.601Z</time>
      </trkpt>
      <trkpt lat="47.190007" lon="15.460780">
        <ele>1201.200907</ele>
        <time>2024-07-02T17:11:53.420Z</time>
      </trkpt>
      <trkpt lat="47.189789" lon="15.459959">
        <ele>1201.739540</ele>
        <time>2024-07-02T17:12:23.835Z</time>
      </trkpt>
      <trkpt lat="47.189748" lon="15.459091">
        <ele>1201.798059</ele>
        <time>2024-07-02T17:12:42.241Z</time>
      </trkpt>
      <trkpt lat="47.189769" lon="15.458662">
        <ele>1201.826987</ele>
        <time>2024-07-02T17:12:50.835Z</time>
      </trkpt>
      <trkpt lat="47.189730" lon="15.458059">
        <ele>1201.867726</ele>
        <time>2024-07-02T17:13:02.637Z</time>
      </trkpt>
      <trkpt lat="47.189741" lon="15.457844">
        <ele>1201.515376</ele>
        <time>2024-07-02T17:13:06.904Z</time>
      </trkpt>
      <trkpt lat="47.189627" lon="15.457436">
        <ele>1199.678366</ele>
        <time>2024-07-02T17:13:27.736Z</time>
      </trkpt>
      <trkpt lat="47.189598" lon="15.457201">
        <ele>1198.683768</ele>
        <time>2024-07-02T17:13:39.061Z</time>
      </trkpt>
      <trkpt lat="47.189607" lon="15.457071">
        <ele>1198.139615</ele>
        <time>2024-07-02T17:13:45.228Z</time>
      </trkpt>
      <trkpt lat="47.189897" lon="15.456072">
        <ele>1193.615906</ele>
        <time>2024-07-02T17:14:36.621Z</time>
      </trkpt>
      <trkpt lat="47.189899" lon="15.456065">
        <ele>1193.584285</ele>
        <time>2024-07-02T17:14:36.991Z</time>
      </trkpt>
      <trkpt lat="47.189987" lon="15.455673">
        <ele>1191.865155</ele>
        <time>2024-07-02T17:14:56.588Z</time>
      </trkpt>
      <trkpt lat="47.190618" lon="15.454250">
        <ele>1181.936522</ele>
        <time>2024-07-02T17:16:17.053Z</time>
      </trkpt>
      <trkpt lat="47.190764" lon="15.453786">
        <ele>1178.805696</ele>
        <time>2024-07-02T17:16:41.300Z</time>
      </trkpt>
      <trkpt lat="47.190971" lon="15.453257">
        <ele>1175.068057</ele>
        <time>2024-07-02T17:17:10.180Z</time>
      </trkpt>
      <trkpt lat="47.191052" lon="15.452875">
        <ele>1171.859863</ele>
        <time>2024-07-02T17:17:29.180Z</time>
      </trkpt>
      <trkpt lat="47.191150" lon="15.452659">
        <ele>1169.676088</ele>
        <time>2024-07-02T17:17:41.502Z</time>
      </trkpt>
      <trkpt lat="47.191242" lon="15.452353">
        <ele>1166.862591</ele>
        <time>2024-07-02T17:17:57.384Z</time>
      </trkpt>
      <trkpt lat="47.191337" lon="15.451711">
        <ele>1161.337999</ele>
        <time>2024-07-02T17:18:28.616Z</time>
      </trkpt>
      <trkpt lat="47.191328" lon="15.451633">
        <ele>1160.672769</ele>
        <time>2024-07-02T17:18:32.369Z</time>
      </trkpt>
      <trkpt lat="47.191226" lon="15.451478">
        <ele>1158.858562</ele>
        <time>2024-07-02T17:18:42.594Z</time>
      </trkpt>
      <trkpt lat="47.190783" lon="15.451732">
        <ele>1152.975857</ele>
        <time>2024-07-02T17:18:52.265Z</time>
      </trkpt>
      <trkpt lat="47.190506" lon="15.451836">
        <ele>1148.593450</ele>
        <time>2024-07-02T17:18:58.091Z</time>
      </trkpt>
      <trkpt lat="47.190177" lon="15.452086">
        <ele>1142.701529</ele>
        <time>2024-07-02T17:19:05.545Z</time>
      </trkpt>
      <trkpt lat="47.189604" lon="15.452732">
        <ele>1131.215431</ele>
        <time>2024-07-02T17:19:19.964Z</time>
      </trkpt>
      <trkpt lat="47.189113" lon="15.453014">
        <ele>1122.879518</ele>
        <time>2024-07-02T17:19:30.489Z</time>
      </trkpt>
      <trkpt lat="47.188592" lon="15.453616">
        <ele>1112.908061</ele>
        <time>2024-07-02T17:19:43.764Z</time>
      </trkpt>
      <trkpt lat="47.188517" lon="15.453657">
        <ele>1111.703704</ele>
        <time>2024-07-02T17:19:45.371Z</time>
      </trkpt>
      <trkpt lat="47.188411" lon="15.453649">
        <ele>1110.106001</ele>
        <time>2024-07-02T17:19:46.581Z</time>
      </trkpt>
      <trkpt lat="47.188143" lon="15.453721">
        <ele>1106.005143</ele>
        <time>2024-07-02T17:19:49.683Z</time>
      </trkpt>
      <trkpt lat="47.188135" lon="15.453764">
        <ele>1105.549075</ele>
        <time>2024-07-02T17:19:50.295Z</time>
      </trkpt>
      <trkpt lat="47.188061" lon="15.453805">
        <ele>1104.358815</ele>
        <time>2024-07-02T17:19:51.897Z</time>
      </trkpt>
      <trkpt lat="47.187800" lon="15.453871">
        <ele>1100.372422</ele>
        <time>2024-07-02T17:19:57.303Z</time>
      </trkpt>
      <trkpt lat="47.187054" lon="15.453968">
        <ele>1091.999508</ele>
        <time>2024-07-02T17:20:12.741Z</time>
      </trkpt>
      <trkpt lat="47.186567" lon="15.453978">
        <ele>1087.466104</ele>
        <time>2024-07-02T17:20:23.261Z</time>
      </trkpt>
      <trkpt lat="47.186205" lon="15.453941">
        <ele>1084.088513</ele>
        <time>2024-07-02T17:20:31.527Z</time>
      </trkpt>
      <trkpt lat="47.186003" lon="15.453984">
        <ele>1082.188737</ele>
        <time>2024-07-02T17:20:36.234Z</time>
      </trkpt>
      <trkpt lat="47.185773" lon="15.453947">
        <ele>1080.035155</ele>
        <time>2024-07-02T17:20:41.734Z</time>
      </trkpt>
      <trkpt lat="47.185635" lon="15.453844">
        <ele>1079.294493</ele>
        <time>2024-07-02T17:20:45.313Z</time>
      </trkpt>
      <trkpt lat="47.185603" lon="15.453766">
        <ele>1079.014195</ele>
        <time>2024-07-02T17:20:46.802Z</time>
      </trkpt>
      <trkpt lat="47.185555" lon="15.453648">
        <ele>1078.591112</ele>
        <time>2024-07-02T17:20:49.080Z</time>
      </trkpt>
      <trkpt lat="47.185479" lon="15.453139">
        <ele>1076.987832</ele>
        <time>2024-07-02T17:20:57.412Z</time>
      </trkpt>
      <trkpt lat="47.185390" lon="15.452988">
        <ele>1076.372918</ele>
        <time>2024-07-02T17:21:00.568Z</time>
      </trkpt>
      <trkpt lat="47.185250" lon="15.452879">
        <ele>1075.655923</ele>
        <time>2024-07-02T17:21:04.359Z</time>
      </trkpt>
      <trkpt lat="47.184736" lon="15.452740">
        <ele>1073.290209</ele>
        <time>2024-07-02T17:21:17.328Z</time>
      </trkpt>
      <trkpt lat="47.184415" lon="15.452564">
        <ele>1071.839011</ele>
        <time>2024-07-02T17:21:26.446Z</time>
      </trkpt>
      <trkpt lat="47.184267" lon="15.452403">
        <ele>1072.105313</ele>
        <time>2024-07-02T17:21:31.389Z</time>
      </trkpt>
      <trkpt lat="47.184130" lon="15.452154">
        <ele>1072.420340</ele>
        <time>2024-07-02T17:21:37.339Z</time>
      </trkpt>
      <trkpt lat="47.184016" lon="15.451871">
        <ele>1072.743833</ele>
        <time>2024-07-02T17:21:43.744Z</time>
      </trkpt>
      <trkpt lat="47.183934" lon="15.451385">
        <ele>1073.236244</ele>
        <time>2024-07-02T17:21:55.688Z</time>
      </trkpt>
      <trkpt lat="47.183795" lon="15.450563">
        <ele>1074.069195</ele>
        <time>2024-07-02T17:22:22.849Z</time>
      </trkpt>
      <trkpt lat="47.183693" lon="15.450309">
        <ele>1074.359305</ele>
        <time>2024-07-02T17:22:35.265Z</time>
      </trkpt>
      <trkpt lat="47.183584" lon="15.450149">
        <ele>1075.279757</ele>
        <time>2024-07-02T17:22:44.835Z</time>
      </trkpt>
      <trkpt lat="47.183474" lon="15.449760">
        <ele>1077.447981</ele>
        <time>2024-07-02T17:23:04.642Z</time>
      </trkpt>
      <trkpt lat="47.183432" lon="15.449613">
        <ele>1078.268598</ele>
        <time>2024-07-02T17:23:12.242Z</time>
      </trkpt>
      <trkpt lat="47.183394" lon="15.449524">
        <ele>1078.809489</ele>
        <time>2024-07-02T17:23:17.685Z</time>
      </trkpt>
      <trkpt lat="47.183348" lon="15.449486">
        <ele>1079.208934</ele>
        <time>2024-07-02T17:23:21.581Z</time>
      </trkpt>
      <trkpt lat="47.183360" lon="15.448364">
        <ele>1084.983693</ele>
        <time>2024-07-02T17:24:13.025Z</time>
      </trkpt>
      <trkpt lat="47.183398" lon="15.448054">
        <ele>1086.604756</ele>
        <time>2024-07-02T17:24:26.091Z</time>
      </trkpt>
      <trkpt lat="47.183451" lon="15.447036">
        <ele>1090.444767</ele>
        <time>2024-07-02T17:25:02.940Z</time>
      </trkpt>
      <trkpt lat="47.183433" lon="15.446836">
        <ele>1091.098912</ele>
        <time>2024-07-02T17:25:09.269Z</time>
      </trkpt>
      <trkpt lat="47.183393" lon="15.446807">
        <ele>1091.311649</ele>
        <time>2024-07-02T17:25:11.499Z</time>
      </trkpt>
      <trkpt lat="47.183411" lon="15.446666">
        <ele>1091.776825</ele>
        <time>2024-07-02T17:25:17.433Z</time>
      </trkpt>
      <trkpt lat="47.183445" lon="15.446255">
        <ele>1093.119294</ele>
        <time>2024-07-02T17:25:31.435Z</time>
      </trkpt>
      <trkpt lat="47.183532" lon="15.446041">
        <ele>1093.927831</ele>
        <time>2024-07-02T17:25:38.989Z</time>
      </trkpt>
      <trkpt lat="47.183503" lon="15.445970">
        <ele>1094.196417</ele>
        <time>2024-07-02T17:25:42.211Z</time>
      </trkpt>
      <trkpt lat="47.183448" lon="15.445647">
        <ele>1095.276086</ele>
        <time>2024-07-02T17:25:54.313Z</time>
      </trkpt>
      <trkpt lat="47.183399" lon="15.445249">
        <ele>1096.587571</ele>
        <time>2024-07-02T17:26:07.795Z</time>
      </trkpt>
      <trkpt lat="47.183324" lon="15.444936">
        <ele>1097.178723</ele>
        <time>2024-07-02T17:26:18.563Z</time>
      </trkpt>
      <trkpt lat="47.183214" lon="15.444599">
        <ele>1097.829264</ele>
        <time>2024-07-02T17:26:31.303Z</time>
      </trkpt>
      <trkpt lat="47.183086" lon="15.444342">
        <ele>1098.383697</ele>
        <time>2024-07-02T17:26:40.716Z</time>
      </trkpt>
      <trkpt lat="47.182967" lon="15.444171">
        <ele>1098.809572</ele>
        <time>2024-07-02T17:26:46.843Z</time>
      </trkpt>
      <trkpt lat="47.182776" lon="15.443964">
        <ele>1099.416931</ele>
        <time>2024-07-02T17:26:58.004Z</time>
      </trkpt>
      <trkpt lat="47.182219" lon="15.443552">
        <ele>1101.013086</ele>
        <time>2024-07-02T17:27:25.121Z</time>
      </trkpt>
      <trkpt lat="47.181548" lon="15.443224">
        <ele>1100.884352</ele>
        <time>2024-07-02T17:27:54.081Z</time>
      </trkpt>
      <trkpt lat="47.180946" lon="15.442944">
        <ele>1100.543451</ele>
        <time>2024-07-02T17:28:13.555Z</time>
      </trkpt>
      <trkpt lat="47.180343" lon="15.442738">
        <ele>1099.838301</ele>
        <time>2024-07-02T17:28:30.025Z</time>
      </trkpt>
      <trkpt lat="47.178398" lon="15.442498">
        <ele>1089.442828</ele>
        <time>2024-07-02T17:29:15.785Z</time>
      </trkpt>
      <trkpt lat="47.177346" lon="15.442152">
        <ele>1083.845017</ele>
        <time>2024-07-02T17:29:41.430Z</time>
      </trkpt>
      <trkpt lat="47.176725" lon="15.442041">
        <ele>1080.724014</ele>
        <time>2024-07-02T17:29:56.686Z</time>
      </trkpt>
      <trkpt lat="47.176080" lon="15.442002">
        <ele>1077.980231</ele>
        <time>2024-07-02T17:30:12.762Z</time>
      </trkpt>
      <trkpt lat="47.175396" lon="15.442083">
        <ele>1075.063596</ele>
        <time>2024-07-02T17:30:30.402Z</time>
      </trkpt>
      <trkpt lat="47.174635" lon="15.442265">
        <ele>1070.469632</ele>
        <time>2024-07-02T17:30:48.861Z</time>
      </trkpt>
      <trkpt lat="47.174040" lon="15.442341">
        <ele>1066.141055</ele>
        <time>2024-07-02T17:31:02.272Z</time>
      </trkpt>
      <trkpt lat="47.173436" lon="15.442329">
        <ele>1061.763075</ele>
        <time>2024-07-02T17:31:15.593Z</time>
      </trkpt>
      <trkpt lat="47.173142" lon="15.442442">
        <ele>1059.447535</ele>
        <time>2024-07-02T17:31:22.290Z</time>
      </trkpt>
      <trkpt lat="47.172909" lon="15.442130">
        <ele>1056.919537</ele>
        <time>2024-07-02T17:31:29.229Z</time>
      </trkpt>
      <trkpt lat="47.172908" lon="15.442129">
        <ele>1056.909835</ele>
        <time>2024-07-02T17:31:29.257Z</time>
      </trkpt>
      <trkpt lat="47.172822" lon="15.442061">
        <ele>1056.126455</ele>
        <time>2024-07-02T17:31:31.400Z</time>
      </trkpt>
      <trkpt lat="47.172634" lon="15.441748">
        <ele>1053.848341</ele>
        <time>2024-07-02T17:31:37.680Z</time>
      </trkpt>
      <trkpt lat="47.172826" lon="15.441355">
        <ele>1051.208667</ele>
        <time>2024-07-02T17:31:44.991Z</time>
      </trkpt>
      <trkpt lat="47.173232" lon="15.441296">
        <ele>1047.935283</ele>
        <time>2024-07-02T17:31:54.178Z</time>
      </trkpt>
      <trkpt lat="47.174439" lon="15.441022">
        <ele>1039.177550</ele>
        <time>2024-07-02T17:32:21.882Z</time>
      </trkpt>
      <trkpt lat="47.174849" lon="15.440832">
        <ele>1036.174643</ele>
        <time>2024-07-02T17:32:31.731Z</time>
      </trkpt>
      <trkpt lat="47.176125" lon="15.440148">
        <ele>1026.737791</ele>
        <time>2024-07-02T17:33:03.019Z</time>
      </trkpt>
      <trkpt lat="47.176338" lon="15.440064">
        <ele>1025.208463</ele>
        <time>2024-07-02T17:33:08.089Z</time>
      </trkpt>
      <trkpt lat="47.177089" lon="15.439903">
        <ele>1019.666801</ele>
        <time>2024-07-02T17:33:25.178Z</time>
      </trkpt>
      <trkpt lat="47.177354" lon="15.439818">
        <ele>1017.350553</ele>
        <time>2024-07-02T17:33:31.142Z</time>
      </trkpt>
      <trkpt lat="47.178211" lon="15.439797">
        <ele>1010.030810</ele>
        <time>2024-07-02T17:33:50.371Z</time>
      </trkpt>
      <trkpt lat="47.178101" lon="15.439620">
        <ele>1008.638652</ele>
        <time>2024-07-02T17:33:53.818Z</time>
      </trkpt>
      <trkpt lat="47.177792" lon="15.439432">
        <ele>1005.780798</ele>
        <time>2024-07-02T17:34:01.096Z</time>
      </trkpt>
      <trkpt lat="47.177496" lon="15.439309">
        <ele>1001.946452</ele>
        <time>2024-07-02T17:34:07.654Z</time>
      </trkpt>
      <trkpt lat="47.177245" lon="15.439229">
        <ele>998.744862</ele>
        <time>2024-07-02T17:34:13.083Z</time>
      </trkpt>
      <trkpt lat="47.176927" lon="15.439202">
        <ele>994.774033</ele>
        <time>2024-07-02T17:34:19.599Z</time>
      </trkpt>
      <trkpt lat="47.176537" lon="15.438971">
        <ele>989.532987</ele>
        <time>2024-07-02T17:34:28.163Z</time>
      </trkpt>
      <trkpt lat="47.176213" lon="15.438853">
        <ele>985.372029</ele>
        <time>2024-07-02T17:34:35.043Z</time>
      </trkpt>
      <trkpt lat="47.175494" lon="15.438687">
        <ele>975.118792</ele>
        <time>2024-07-02T17:34:50.106Z</time>
      </trkpt>
      <trkpt lat="47.175235" lon="15.438569">
        <ele>971.174190</ele>
        <time>2024-07-02T17:34:55.677Z</time>
      </trkpt>
      <trkpt lat="47.174827" lon="15.438553">
        <ele>965.236330</ele>
        <time>2024-07-02T17:35:03.994Z</time>
      </trkpt>
      <trkpt lat="47.174586" lon="15.438499">
        <ele>961.689726</ele>
        <time>2024-07-02T17:35:08.886Z</time>
      </trkpt>
      <trkpt lat="47.174193" lon="15.438301">
        <ele>955.444699</ele>
        <time>2024-07-02T17:35:17.191Z</time>
      </trkpt>
      <trkpt lat="47.174057" lon="15.438076">
        <ele>952.080591</ele>
        <time>2024-07-02T17:35:21.239Z</time>
      </trkpt>
      <trkpt lat="47.173893" lon="15.437807">
        <ele>948.043231</ele>
        <time>2024-07-02T17:35:26.104Z</time>
      </trkpt>
      <trkpt lat="47.173627" lon="15.437512">
        <ele>942.567767</ele>
        <time>2024-07-02T17:35:32.670Z</time>
      </trkpt>
      <trkpt lat="47.173430" lon="15.437169">
        <ele>937.550500</ele>
        <time>2024-07-02T17:35:38.683Z</time>
      </trkpt>
      <trkpt lat="47.173201" lon="15.436917">
        <ele>932.849839</ele>
        <time>2024-07-02T17:35:44.356Z</time>
      </trkpt>
      <trkpt lat="47.173029" lon="15.436557">
        <ele>927.933241</ele>
        <time>2024-07-02T17:35:50.389Z</time>
      </trkpt>
      <trkpt lat="47.172546" lon="15.435695">
        <ele>925.437679</ele>
        <time>2024-07-02T17:36:06.948Z</time>
      </trkpt>
      <trkpt lat="47.172980" lon="15.436128">
        <ele>923.883468</ele>
        <time>2024-07-02T17:36:21.682Z</time>
      </trkpt>
      <trkpt lat="47.173402" lon="15.436720">
        <ele>922.795725</ele>
        <time>2024-07-02T17:36:54.662Z</time>
      </trkpt>
      <trkpt lat="47.173629" lon="15.436968">
        <ele>925.573551</ele>
        <time>2024-07-02T17:37:16.958Z</time>
      </trkpt>
      <trkpt lat="47.174472" lon="15.437646">
        <ele>935.012243</ele>
        <time>2024-07-02T17:38:40.716Z</time>
      </trkpt>
      <trkpt lat="47.174488" lon="15.437701">
        <ele>935.411762</ele>
        <time>2024-07-02T17:38:44.884Z</time>
      </trkpt>
      <trkpt lat="47.174920" lon="15.437785">
        <ele>939.692714</ele>
        <time>2024-07-02T17:39:20.838Z</time>
      </trkpt>
      <trkpt lat="47.175192" lon="15.437633">
        <ele>943.238956</ele>
        <time>2024-07-02T17:39:45.343Z</time>
      </trkpt>
      <trkpt lat="47.175426" lon="15.437560">
        <ele>946.216022</ele>
        <time>2024-07-02T17:40:06.397Z</time>
      </trkpt>
      <trkpt lat="47.175629" lon="15.437525">
        <ele>948.759800</ele>
        <time>2024-07-02T17:40:26.808Z</time>
      </trkpt>
      <trkpt lat="47.176054" lon="15.437566">
        <ele>954.060600</ele>
        <time>2024-07-02T17:41:07.012Z</time>
      </trkpt>
      <trkpt lat="47.176499" lon="15.437712">
        <ele>959.735014</ele>
        <time>2024-07-02T17:41:50.328Z</time>
      </trkpt>
      <trkpt lat="47.177030" lon="15.438041">
        <ele>967.584594</ele>
        <time>2024-07-02T17:42:49.994Z</time>
      </trkpt>
      <trkpt lat="47.178162" lon="15.439000">
        <ele>986.268972</ele>
        <time>2024-07-02T17:45:09.387Z</time>
      </trkpt>
      <trkpt lat="47.178647" lon="15.439346">
        <ele>993.302189</ele>
        <time>2024-07-02T17:46:01.636Z</time>
      </trkpt>
      <trkpt lat="47.179838" lon="15.440095">
        <ele>1009.701504</ele>
        <time>2024-07-02T17:48:02.864Z</time>
      </trkpt>
      <trkpt lat="47.180185" lon="15.440240">
        <ele>1014.073195</ele>
        <time>2024-07-02T17:48:36.377Z</time>
      </trkpt>
      <trkpt lat="47.181325" lon="15.440584">
        <ele>1027.962503</ele>
        <time>2024-07-02T17:50:22.940Z</time>
      </trkpt>
      <trkpt lat="47.181899" lon="15.440888">
        <ele>1035.148992</ele>
        <time>2024-07-02T17:51:17.632Z</time>
      </trkpt>
      <trkpt lat="47.182385" lon="15.441232">
        <ele>1041.377018</ele>
        <time>2024-07-02T17:52:07.440Z</time>
      </trkpt>
      <trkpt lat="47.182969" lon="15.441728">
        <ele>1049.164020</ele>
        <time>2024-07-02T17:53:08.637Z</time>
      </trkpt>
      <trkpt lat="47.183493" lon="15.442280">
        <ele>1055.925317</ele>
        <time>2024-07-02T17:54:04.139Z</time>
      </trkpt>
      <trkpt lat="47.183900" lon="15.442649">
        <ele>1060.374745</ele>
        <time>2024-07-02T17:54:43.670Z</time>
      </trkpt>
      <trkpt lat="47.183931" lon="15.442664">
        <ele>1060.678469</ele>
        <time>2024-07-02T17:54:46.234Z</time>
      </trkpt>
      <trkpt lat="47.184162" lon="15.442927">
        <ele>1063.396921</ele>
        <time>2024-07-02T17:55:08.999Z</time>
      </trkpt>
      <trkpt lat="47.184238" lon="15.443044">
        <ele>1064.420676</ele>
        <time>2024-07-02T17:55:17.091Z</time>
      </trkpt>
      <trkpt lat="47.184308" lon="15.443216">
        <ele>1065.688821</ele>
        <time>2024-07-02T17:55:26.372Z</time>
      </trkpt>
      <trkpt lat="47.184252" lon="15.443586">
        <ele>1068.086609</ele>
        <time>2024-07-02T17:55:44.742Z</time>
      </trkpt>
      <trkpt lat="47.184238" lon="15.444036">
        <ele>1070.939796</ele>
        <time>2024-07-02T17:56:06.369Z</time>
      </trkpt>
      <trkpt lat="47.184143" lon="15.444236">
        <ele>1072.488465</ele>
        <time>2024-07-02T17:56:17.723Z</time>
      </trkpt>
      <trkpt lat="47.184108" lon="15.444407">
        <ele>1073.621932</ele>
        <time>2024-07-02T17:56:27.019Z</time>
      </trkpt>
      <trkpt lat="47.184089" lon="15.444674">
        <ele>1075.325818</ele>
        <time>2024-07-02T17:56:40.427Z</time>
      </trkpt>
      <trkpt lat="47.184105" lon="15.444847">
        <ele>1076.433951</ele>
        <time>2024-07-02T17:56:49.342Z</time>
      </trkpt>
      <trkpt lat="47.184141" lon="15.444907">
        <ele>1076.941929</ele>
        <time>2024-07-02T17:56:53.739Z</time>
      </trkpt>
      <trkpt lat="47.184387" lon="15.445113">
        <ele>1079.585214</ele>
        <time>2024-07-02T17:57:16.591Z</time>
      </trkpt>
      <trkpt lat="47.184517" lon="15.445482">
        <ele>1082.223157</ele>
        <time>2024-07-02T17:57:40.436Z</time>
      </trkpt>
      <trkpt lat="47.184586" lon="15.445607">
        <ele>1083.245220</ele>
        <time>2024-07-02T17:57:49.295Z</time>
      </trkpt>
      <trkpt lat="47.185205" lon="15.447118">
        <ele>1095.888476</ele>
        <time>2024-07-02T17:59:29.265Z</time>
      </trkpt>
      <trkpt lat="47.185207" lon="15.447119">
        <ele>1095.911854</ele>
        <time>2024-07-02T17:59:29.483Z</time>
      </trkpt>
      <trkpt lat="47.185346" lon="15.447207">
        <ele>1097.586612</ele>
        <time>2024-07-02T17:59:43.223Z</time>
      </trkpt>
      <trkpt lat="47.185392" lon="15.447185">
        <ele>1098.121941</ele>
        <time>2024-07-02T17:59:47.324Z</time>
      </trkpt>
      <trkpt lat="47.185540" lon="15.446970">
        <ele>1100.423765</ele>
        <time>2024-07-02T18:00:06.162Z</time>
      </trkpt>
      <trkpt lat="47.185796" lon="15.447025">
        <ele>1103.287117</ele>
        <time>2024-07-02T18:00:30.940Z</time>
      </trkpt>
      <trkpt lat="47.186092" lon="15.447012">
        <ele>1106.561267</ele>
        <time>2024-07-02T18:00:58.816Z</time>
      </trkpt>
      <trkpt lat="47.186359" lon="15.447012">
        <ele>1109.103854</ele>
        <time>2024-07-02T18:01:22.598Z</time>
      </trkpt>
      <trkpt lat="47.186470" lon="15.447099">
        <ele>1110.301492</ele>
        <time>2024-07-02T18:01:32.547Z</time>
      </trkpt>
      <trkpt lat="47.186705" lon="15.447549">
        <ele>1113.974310</ele>
        <time>2024-07-02T18:02:03.999Z</time>
      </trkpt>
      <trkpt lat="47.186784" lon="15.447599">
        <ele>1114.793253</ele>
        <time>2024-07-02T18:02:10.784Z</time>
      </trkpt>
      <trkpt lat="47.186893" lon="15.447772">
        <ele>1116.320001</ele>
        <time>2024-07-02T18:02:24.111Z</time>
      </trkpt>
      <trkpt lat="47.186931" lon="15.447977">
        <ele>1117.695180</ele>
        <time>2024-07-02T18:02:34.670Z</time>
      </trkpt>
      <trkpt lat="47.186881" lon="15.448368">
        <ele>1120.270051</ele>
        <time>2024-07-02T18:02:55.295Z</time>
      </trkpt>
      <trkpt lat="47.186822" lon="15.448601">
        <ele>1121.879246</ele>
        <time>2024-07-02T18:03:07.239Z</time>
      </trkpt>
      <trkpt lat="47.186795" lon="15.448965">
        <ele>1124.138026</ele>
        <time>2024-07-02T18:03:24.208Z</time>
      </trkpt>
      <trkpt lat="47.186991" lon="15.449265">
        <ele>1126.316122</ele>
        <time>2024-07-02T18:03:40.479Z</time>
      </trkpt>
      <trkpt lat="47.187087" lon="15.449604">
        <ele>1128.238322</ele>
        <time>2024-07-02T18:03:54.522Z</time>
      </trkpt>
      <trkpt lat="47.187154" lon="15.450021">
        <ele>1130.481059</ele>
        <time>2024-07-02T18:04:10.915Z</time>
      </trkpt>
      <trkpt lat="47.187387" lon="15.450997">
        <ele>1135.895422</ele>
        <time>2024-07-02T18:04:49.593Z</time>
      </trkpt>
      <trkpt lat="47.187467" lon="15.451187">
        <ele>1137.065266</ele>
        <time>2024-07-02T18:04:58.984Z</time>
      </trkpt>
      <trkpt lat="47.187557" lon="15.451318">
        <ele>1138.179557</ele>
        <time>2024-07-02T18:05:06.869Z</time>
      </trkpt>
      <trkpt lat="47.187760" lon="15.451504">
        <ele>1140.515634</ele>
        <time>2024-07-02T18:05:22.024Z</time>
      </trkpt>
      <trkpt lat="47.187897" lon="15.451555">
        <ele>1141.896111</ele>
        <time>2024-07-02T18:05:31.231Z</time>
      </trkpt>
      <trkpt lat="47.188296" lon="15.451523">
        <ele>1145.799612</ele>
        <time>2024-07-02T18:05:58.307Z</time>
      </trkpt>
      <trkpt lat="47.188306" lon="15.451522">
        <ele>1145.897524</ele>
        <time>2024-07-02T18:05:59.019Z</time>
      </trkpt>
      <trkpt lat="47.188794" lon="15.451361">
        <ele>1150.783006</ele>
        <time>2024-07-02T18:06:34.769Z</time>
      </trkpt>
      <trkpt lat="47.188948" lon="15.451291">
        <ele>1152.357527</ele>
        <time>2024-07-02T18:06:46.552Z</time>
      </trkpt>
      <trkpt lat="47.189512" lon="15.450950">
        <ele>1158.423078</ele>
        <time>2024-07-02T18:07:30.515Z</time>
      </trkpt>
      <trkpt lat="47.189833" lon="15.450652">
        <ele>1162.256197</ele>
        <time>2024-07-02T18:07:57.201Z</time>
      </trkpt>
      <trkpt lat="47.189958" lon="15.450577">
        <ele>1163.619519</ele>
        <time>2024-07-02T18:08:06.647Z</time>
      </trkpt>
      <trkpt lat="47.190364" lon="15.450575">
        <ele>1167.719864</ele>
        <time>2024-07-02T18:08:34.798Z</time>
      </trkpt>
      <trkpt lat="47.190633" lon="15.450605">
        <ele>1170.444371</ele>
        <time>2024-07-02T18:08:54.091Z</time>
      </trkpt>
      <trkpt lat="47.191518" lon="15.450814">
        <ele>1178.032811</ele>
        <time>2024-07-02T18:09:53.930Z</time>
      </trkpt>
      <trkpt lat="47.191884" lon="15.450782">
        <ele>1180.867035</ele>
        <time>2024-07-02T18:10:14.458Z</time>
      </trkpt>
      <trkpt lat="47.192185" lon="15.450846">
        <ele>1183.217973</ele>
        <time>2024-07-02T18:10:30.642Z</time>
      </trkpt>
      <trkpt lat="47.192394" lon="15.450949">
        <ele>1184.921765</ele>
        <time>2024-07-02T18:10:42.517Z</time>
      </trkpt>
      <trkpt lat="47.192457" lon="15.451035">
        <ele>1185.586031</ele>
        <time>2024-07-02T18:10:46.499Z</time>
      </trkpt>
      <trkpt lat="47.192459" lon="15.451160">
        <ele>1186.242829</ele>
        <time>2024-07-02T18:10:50.473Z</time>
      </trkpt>
      <trkpt lat="47.192257" lon="15.451567">
        <ele>1188.471725</ele>
        <time>2024-07-02T18:11:07.453Z</time>
      </trkpt>
      <trkpt lat="47.191934" lon="15.452379">
        <ele>1192.218283</ele>
        <time>2024-07-02T18:11:38.928Z</time>
      </trkpt>
      <trkpt lat="47.191529" lon="15.453172">
        <ele>1196.168354</ele>
        <time>2024-07-02T18:12:08.683Z</time>
      </trkpt>
      <trkpt lat="47.191436" lon="15.453398">
        <ele>1197.220421</ele>
        <time>2024-07-02T18:12:17.206Z</time>
      </trkpt>
      <trkpt lat="47.191263" lon="15.453641">
        <ele>1199.045115</ele>
        <time>2024-07-02T18:12:29.080Z</time>
      </trkpt>
      <trkpt lat="47.191121" lon="15.453967">
        <ele>1201.295025</ele>
        <time>2024-07-02T18:12:43.637Z</time>
      </trkpt>
      <trkpt lat="47.190903" lon="15.454668">
        <ele>1205.774370</ele>
        <time>2024-07-02T18:13:16.499Z</time>
      </trkpt>
      <trkpt lat="47.190585" lon="15.455430">
        <ele>1210.970159</ele>
        <time>2024-07-02T18:13:58.599Z</time>
      </trkpt>
      <trkpt lat="47.190441" lon="15.455654">
        <ele>1212.761801</ele>
        <time>2024-07-02T18:14:12.596Z</time>
      </trkpt>
      <trkpt lat="47.190267" lon="15.456004">
        <ele>1215.691041</ele>
        <time>2024-07-02T18:14:31.765Z</time>
      </trkpt>
      <trkpt lat="47.190169" lon="15.456283">
        <ele>1217.855169</ele>
        <time>2024-07-02T18:14:46.405Z</time>
      </trkpt>
      <trkpt lat="47.190121" lon="15.456526">
        <ele>1219.598908</ele>
        <time>2024-07-02T18:14:57.772Z</time>
      </trkpt>
      <trkpt lat="47.190076" lon="15.457251">
        <ele>1224.615456</ele>
        <time>2024-07-02T18:15:33.657Z</time>
      </trkpt>
      <trkpt lat="47.190166" lon="15.457831">
        <ele>1228.714923</ele>
        <time>2024-07-02T18:16:02.948Z</time>
      </trkpt>
      <trkpt lat="47.190243" lon="15.458148">
        <ele>1231.034613</ele>
        <time>2024-07-02T18:16:18.968Z</time>
      </trkpt>
      <trkpt lat="47.190693" lon="15.459334">
        <ele>1240.418864</ele>
        <time>2024-07-02T18:17:23.343Z</time>
      </trkpt>
      <trkpt lat="47.190779" lon="15.459661">
        <ele>1242.841445</ele>
        <time>2024-07-02T18:17:39.313Z</time>
      </trkpt>
      <trkpt lat="47.190831" lon="15.459824">
        <ele>1244.085554</ele>
        <time>2024-07-02T18:17:47.900Z</time>
      </trkpt>
      <trkpt lat="47.191097" lon="15.460379">
        <ele>1248.777867</ele>
        <time>2024-07-02T18:18:21.002Z</time>
      </trkpt>
      <trkpt lat="47.191294" lon="15.460859">
        <ele>1252.813679</ele>
        <time>2024-07-02T18:18:47.571Z</time>
      </trkpt>
      <trkpt lat="47.192003" lon="15.463347">
        <ele>1272.502128</ele>
        <time>2024-07-02T18:21:01.629Z</time>
      </trkpt>
      <trkpt lat="47.192226" lon="15.463975">
        <ele>1277.744440</ele>
        <time>2024-07-02T18:21:39.086Z</time>
      </trkpt>
      <trkpt lat="47.192459" lon="15.464422">
        <ele>1281.912400</ele>
        <time>2024-07-02T18:22:07.723Z</time>
      </trkpt>
      <trkpt lat="47.192656" lon="15.464715">
        <ele>1284.961860</ele>
        <time>2024-07-02T18:22:28.108Z</time>
      </trkpt>
      <trkpt lat="47.192824" lon="15.464950">
        <ele>1287.485404</ele>
        <time>2024-07-02T18:22:44.782Z</time>
      </trkpt>
      <trkpt lat="47.193144" lon="15.465305">
        <ele>1291.375017</ele>
        <time>2024-07-02T18:23:13.198Z</time>
      </trkpt>
      <trkpt lat="47.193339" lon="15.465589">
        <ele>1293.946829</ele>
        <time>2024-07-02T18:23:31.520Z</time>
      </trkpt>
      <trkpt lat="47.194063" lon="15.467066">
        <ele>1305.559201</ele>
        <time>2024-07-02T18:24:50.160Z</time>
      </trkpt>
      <trkpt lat="47.194256" lon="15.467317">
        <ele>1308.087195</ele>
        <time>2024-07-02T18:25:07.170Z</time>
      </trkpt>
      <trkpt lat="47.194464" lon="15.467525">
        <ele>1310.555445</ele>
        <time>2024-07-02T18:25:23.994Z</time>
      </trkpt>
      <trkpt lat="47.195162" lon="15.468165">
        <ele>1318.627236</ele>
        <time>2024-07-02T18:26:21.338Z</time>
      </trkpt>
      <trkpt lat="47.195417" lon="15.468482">
        <ele>1321.903496</ele>
        <time>2024-07-02T18:26:44.473Z</time>
      </trkpt>
      <trkpt lat="47.195648" lon="15.468837">
        <ele>1325.123949</ele>
        <time>2024-07-02T18:27:08.427Z</time>
      </trkpt>
      <trkpt lat="47.196463" lon="15.469820">
        <ele>1335.198390</ele>
        <time>2024-07-02T18:28:18.741Z</time>
      </trkpt>
      <trkpt lat="47.196471" lon="15.469830">
        <ele>1335.298740</ele>
        <time>2024-07-02T18:28:19.362Z</time>
      </trkpt>
      <trkpt lat="47.196576" lon="15.469968">
        <ele>1336.644641</ele>
        <time>2024-07-02T18:28:27.022Z</time>
      </trkpt>
      <trkpt lat="47.196865" lon="15.470273">
        <ele>1340.044663</ele>
        <time>2024-07-02T18:28:50.593Z</time>
      </trkpt>
      <trkpt lat="47.197128" lon="15.470539">
        <ele>1343.390246</ele>
        <time>2024-07-02T18:29:12.634Z</time>
      </trkpt>
      <trkpt lat="47.197389" lon="15.470907">
        <ele>1347.191891</ele>
        <time>2024-07-02T18:29:37.535Z</time>
      </trkpt>
      <trkpt lat="47.197492" lon="15.470990">
        <ele>1348.426987</ele>
        <time>2024-07-02T18:29:46.571Z</time>
      </trkpt>
      <trkpt lat="47.197529" lon="15.470979">
        <ele>1348.824006</ele>
        <time>2024-07-02T18:29:49.134Z</time>
      </trkpt>
      <trkpt lat="47.197700" lon="15.471253">
        <ele>1351.482794</ele>
        <time>2024-07-02T18:30:08.785Z</time>
      </trkpt>
      <trkpt lat="47.197700" lon="15.471253">
        <ele>1351.482794</ele>
        <time>2024-07-02T18:30:08.960Z</time>
      </trkpt>
      <trkpt lat="47.197700" lon="15.471253">
        <ele>1351.482794</ele>
        <time>2024-07-02T18:30:08.960Z</time>
      </trkpt>
      <trkpt lat="47.197695" lon="15.471261">
        <ele>1351.560475</ele>
        <time>2024-07-02T18:30:09.277Z</time>
      </trkpt>
      <trkpt lat="47.197802" lon="15.471411">
        <ele>1353.114722</ele>
        <time>2024-07-02T18:30:15.621Z</time>
      </trkpt>
      <trkpt lat="47.197888" lon="15.471475">
        <ele>1354.128316</ele>
        <time>2024-07-02T18:30:19.764Z</time>
      </trkpt>
      <trkpt lat="47.198210" lon="15.471647">
        <ele>1357.731221</ele>
        <time>2024-07-02T18:30:34.486Z</time>
      </trkpt>
      <trkpt lat="47.198317" lon="15.471711">
        <ele>1358.946018</ele>
        <time>2024-07-02T18:30:39.445Z</time>
      </trkpt>
      <trkpt lat="47.198682" lon="15.472033">
        <ele>1364.092170</ele>
        <time>2024-07-02T18:30:57.754Z</time>
      </trkpt>
      <trkpt lat="47.198676" lon="15.472038">
        <ele>1364.175863</ele>
        <time>2024-07-02T18:30:58.050Z</time>
      </trkpt>
      <trkpt lat="47.198676" lon="15.472038">
        <ele>1364.175863</ele>
        <time>2024-07-02T18:30:58.050Z</time>
      </trkpt>
      <trkpt lat="47.198676" lon="15.472038">
        <ele>1364.175863</ele>
        <time>2024-07-02T18:30:58.060Z</time>
      </trkpt>
      <trkpt lat="47.198842" lon="15.472276">
        <ele>1366.988830</ele>
        <time>2024-07-02T18:31:19.112Z</time>
      </trkpt>
      <trkpt lat="47.199056" lon="15.472510">
        <ele>1370.224833</ele>
        <time>2024-07-02T18:31:46.027Z</time>
      </trkpt>
      <trkpt lat="47.199305" lon="15.472924">
        <ele>1374.784744</ele>
        <time>2024-07-02T18:32:20.782Z</time>
      </trkpt>
      <trkpt lat="47.199814" lon="15.473504">
        <ele>1382.439742</ele>
        <time>2024-07-02T18:33:20.463Z</time>
      </trkpt>
      <trkpt lat="47.200591" lon="15.474513">
        <ele>1393.840713</ele>
        <time>2024-07-02T18:34:54.081Z</time>
      </trkpt>
      <trkpt lat="47.200964" lon="15.474932">
        <ele>1399.003445</ele>
        <time>2024-07-02T18:35:33.315Z</time>
      </trkpt>
      <trkpt lat="47.201055" lon="15.475107">
        <ele>1400.650841</ele>
        <time>2024-07-02T18:35:45.119Z</time>
      </trkpt>
      <trkpt lat="47.201099" lon="15.475098">
        <ele>1400.928021</ele>
        <time>2024-07-02T18:35:48.659Z</time>
      </trkpt>
      <trkpt lat="47.201130" lon="15.475036">
        <ele>1401.230956</ele>
        <time>2024-07-02T18:35:52.826Z</time>
      </trkpt>
      <trkpt lat="47.201115" lon="15.474912">
        <ele>1401.726606</ele>
        <time>2024-07-02T18:35:59.555Z</time>
      </trkpt>
      <trkpt lat="47.201096" lon="15.474747">
        <ele>1402.385188</ele>
        <time>2024-07-02T18:36:08.112Z</time>
      </trkpt>
      <trkpt lat="47.201109" lon="15.474657">
        <ele>1402.747279</ele>
        <time>2024-07-02T18:36:12.859Z</time>
      </trkpt>
      <trkpt lat="47.201156" lon="15.474623">
        <ele>1403.050611</ele>
        <time>2024-07-02T18:36:16.828Z</time>
      </trkpt>
      <trkpt lat="47.201357" lon="15.474678">
        <ele>1404.234765</ele>
        <time>2024-07-02T18:36:31.231Z</time>
      </trkpt>
      <trkpt lat="47.201483" lon="15.474683">
        <ele>1404.964831</ele>
        <time>2024-07-02T18:36:39.545Z</time>
      </trkpt>
      <trkpt lat="47.201801" lon="15.474088">
        <ele>1407.943927</ele>
        <time>2024-07-02T18:37:10.563Z</time>
      </trkpt>
      <trkpt lat="47.201886" lon="15.473246">
        <ele>1411.099740</ele>
        <time>2024-07-02T18:37:38.599Z</time>
      </trkpt>
      <trkpt lat="47.201958" lon="15.471387">
        <ele>1410.661777</ele>
        <time>2024-07-02T18:38:18.272Z</time>
      </trkpt>
      <trkpt lat="47.201924" lon="15.471203">
        <ele>1410.616927</ele>
        <time>2024-07-02T18:38:21.752Z</time>
      </trkpt>
      <trkpt lat="47.201710" lon="15.470641">
        <ele>1410.518202</ele>
        <time>2024-07-02T18:38:33.045Z</time>
      </trkpt>
      <trkpt lat="47.201471" lon="15.470259">
        <ele>1410.681294</ele>
        <time>2024-07-02T18:38:42.496Z</time>
      </trkpt>
      <trkpt lat="47.200967" lon="15.469821">
        <ele>1410.951851</ele>
        <time>2024-07-02T18:39:00.032Z</time>
      </trkpt>
      <trkpt lat="47.200581" lon="15.469367">
        <ele>1411.180256</ele>
        <time>2024-07-02T18:39:20.134Z</time>
      </trkpt>
      <trkpt lat="47.200543" lon="15.469298">
        <ele>1411.208152</ele>
        <time>2024-07-02T18:39:22.667Z</time>
      </trkpt>
      <trkpt lat="47.200539" lon="15.469228">
        <ele>1411.230214</ele>
        <time>2024-07-02T18:39:24.770Z</time>
      </trkpt>
      <trkpt lat="47.199743" lon="15.468770">
        <ele>1414.223167</ele>
        <time>2024-07-02T18:40:11.938Z</time>
      </trkpt>
      <trkpt lat="47.199629" lon="15.468672">
        <ele>1414.802563</ele>
        <time>2024-07-02T18:40:19.767Z</time>
      </trkpt>
      <trkpt lat="47.199328" lon="15.468211">
        <ele>1416.709034</ele>
        <time>2024-07-02T18:40:41.473Z</time>
      </trkpt>
      <trkpt lat="47.199000" lon="15.467332">
        <ele>1419.483372</ele>
        <time>2024-07-02T18:41:23.859Z</time>
      </trkpt>
      <trkpt lat="47.199328" lon="15.468211">
        <ele>1421.145520</ele>
        <time>2024-07-02T18:41:53.030Z</time>
      </trkpt>
      <trkpt lat="47.199000" lon="15.467332">
        <ele>1422.807669</ele>
        <time>2024-07-02T18:42:21.566Z</time>
      </trkpt>
      <trkpt lat="47.199328" lon="15.468211">
        <ele>1423.600651</ele>
        <time>2024-07-02T18:42:45.455Z</time>
      </trkpt>
      <trkpt lat="47.199000" lon="15.467332">
        <ele>1423.600651</ele>
        <time>2024-07-02T18:43:15.073Z</time>
      </trkpt>
    </trkseg>
  </trk>
</gpx>